Observation data for Van Horn on 08/14/2019      Previous  Date  Next       Current Mesonet Observations  Soil Data  Daily Summary Page  Observations in Plain Language
KVA1 140500Z 22000KT 24/19 A3013 RMK A01 T02440192  RH  073%=      5-min Rain = 0
KVA1 140501Z 22001KT 24/19 A3013 RMK A01 T02430190  RH  072%=      5-min Rain = 0
KVA1 140502Z 20001KT 24/19 A3013 RMK A01 T02430193  RH  073%=      5-min Rain = 0
KVA1 140503Z 19001KT 24/19 A3013 RMK A01 T02430186  RH  070%=      5-min Rain = 0
KVA1 140504Z 18002KT 24/19 A3013 RMK A01 T02440187  RH  070%=      5-min Rain = 0
KVA1 140505Z 17003KT 25/20 A3013 RMK A01 T02450195  RH  074%=      5-min Rain = 0
KVA1 140506Z 17002KT 25/20 A3013 RMK A01 T02450196  RH  074%=      5-min Rain = 0
KVA1 140507Z 16001KT 25/20 A3013 RMK A01 T02450196  RH  074%=      5-min Rain = 0
KVA1 140508Z 15001KT 24/19 A3013 RMK A01 T02440194  RH  074%=      5-min Rain = 0
KVA1 140509Z 15001KT 24/19 A3013 RMK A01 T02430192  RH  073%=      5-min Rain = 0
KVA1 140510Z 15001KT 24/19 A3013 RMK A01 T02430189  RH  072%=      5-min Rain = 0
KVA1 140522Z 11002KT 25/19 A3014 RMK A01 T02480190  RH  070%=      5-min Rain = 0
KVA1 140523Z 13004KT 25/19 A3014 RMK A01 T02480193  RH  071%=      5-min Rain = 0
KVA1 140524Z 13004KT 25/19 A3014 RMK A01 T02480191  RH  071%=      5-min Rain = 0
KVA1 140525Z 13004KT 25/19 A3014 RMK A01 T02470188  RH  070%=      5-min Rain = 0
KVA1 140526Z 13003KT 25/19 A3014 RMK A01 T02470187  RH  069%=      5-min Rain = 0
KVA1 140527Z 12003KT 25/19 A3014 RMK A01 T02470186  RH  069%=      5-min Rain = 0
KVA1 140528Z 14004KT 25/19 A3014 RMK A01 T02470186  RH  069%=      5-min Rain = 0
KVA1 140529Z 14004KT 25/19 A3014 RMK A01 T02470188  RH  070%=      5-min Rain = 0
KVA1 140530Z 15004KT 25/19 A3014 RMK A01 T02470190  RH  070%=      5-min Rain = 0
KVA1 140531Z 15004KT 25/19 A3014 RMK A01 T02470190  RH  070%=      5-min Rain = 0
KVA1 140532Z 16004KT 25/19 A3014 RMK A01 T02460189  RH  070%=      5-min Rain = 0
KVA1 140533Z 15006KT 25/19 A3014 RMK A01 T02470192  RH  071%=      5-min Rain = 0
KVA1 140534Z 16006KT 25/19 A3014 RMK A01 T02460191  RH  071%=      5-min Rain = 0
KVA1 140535Z 16006KT 25/19 A3014 RMK A01 T02460191  RH  071%=      5-min Rain = 0
KVA1 140536Z 16006KT 25/19 A3014 RMK A01 T02460191  RH  071%=      5-min Rain = 0
KVA1 140537Z 16005KT 25/19 A3014 RMK A01 T02460191  RH  071%=      5-min Rain = 0
KVA1 140538Z 15007KT 25/19 A3014 RMK A01 T02460189  RH  070%=      5-min Rain = 0
KVA1 140539Z 15007KT 25/18 A3015 RMK A01 T02460183  RH  068%=      5-min Rain = 0
KVA1 140540Z 14007KT 25/18 A3015 RMK A01 T02470178  RH  066%=      5-min Rain = 0
KVA1 140541Z 13007KT 25/17 A3015 RMK A01 T02480174  RH  063%=      5-min Rain = 0
KVA1 140542Z 12007KT 25/17 A3015 RMK A01 T02490174  RH  063%=      5-min Rain = 0
KVA1 140543Z 11007KT 25/17 A3015 RMK A01 T02500169  RH  061%=      5-min Rain = 0
KVA1 140544Z 11007KT 25/17 A3015 RMK A01 T02510171  RH  061%=      5-min Rain = 0
KVA1 140545Z 11006KT 25/17 A3015 RMK A01 T02510169  RH  060%=      5-min Rain = 0
KVA1 140546Z 10005KT 25/17 A3015 RMK A01 T02520169  RH  060%=      5-min Rain = 0
KVA1 140547Z 10004KT 25/17 A3015 RMK A01 T02520170  RH  061%=      5-min Rain = 0
KVA1 140548Z 10005KT 25/17 A3015 RMK A01 T02510170  RH  061%=      5-min Rain = 0
KVA1 140549Z 11005KT 25/17 A3015 RMK A01 T02510171  RH  061%=      5-min Rain = 0
KVA1 140550Z 12006KT 25/17 A3015 RMK A01 T02510172  RH  061%=      5-min Rain = 0
KVA1 140551Z 13006KT 25/17 A3016 RMK A01 T02500174  RH  063%=      5-min Rain = 0
KVA1 140552Z 13006KT 25/17 A3016 RMK A01 T02490173  RH  063%=      5-min Rain = 0
KVA1 140553Z 13005KT 25/18 A3016 RMK A01 T02490175  RH  063%=      5-min Rain = 0
KVA1 140554Z 11004KT 25/18 A3015 RMK A01 T02490175  RH  063%=      5-min Rain = 0
KVA1 140555Z 10004KT 25/18 A3015 RMK A01 T02480175  RH  064%=      5-min Rain = 0
KVA1 140556Z 09003KT 25/17 A3015 RMK A01 T02480174  RH  064%=      5-min Rain = 0
KVA1 140557Z 08003KT 25/17 A3015 RMK A01 T02470173  RH  063%=      5-min Rain = 0
KVA1 140558Z 10004KT 25/17 A3015 RMK A01 T02470174  RH  064%=      5-min Rain = 0
KVA1 140559Z 10004KT 25/17 A3016 RMK A01 T02470173  RH  063%=      5-min Rain = 0
KVA1 140600Z 11004KT 25/17 A3016 RMK A01 T02460174  RH  064%=      5-min Rain = 0
KVA1 140601Z 11004KT 25/17 A3016 RMK A01 T02470174  RH  064%=      5-min Rain = 0
KVA1 140602Z 11003KT 25/17 A3015 RMK A01 T02460172  RH  063%=      5-min Rain = 0
KVA1 140603Z 10003KT 25/17 A3015 RMK A01 T02460173  RH  064%=      5-min Rain = 0
KVA1 140604Z 09002KT 25/17 A3015 RMK A01 T02460173  RH  064%=      5-min Rain = 0
KVA1 140605Z 08001KT 25/17 A3015 RMK A01 T02460173  RH  064%=      5-min Rain = 0
KVA1 140606Z 09002KT 25/17 A3016 RMK A01 T02460173  RH  064%=      5-min Rain = 0
KVA1 140607Z 09002KT 25/18 A3016 RMK A01 T02460176  RH  065%=      5-min Rain = 0
KVA1 140608Z 07002KT 25/18 A3016 RMK A01 T02450175  RH  065%=      5-min Rain = 0
KVA1 140609Z 04001KT 25/18 A3016 RMK A01 T02450176  RH  065%=      5-min Rain = 0
KVA1 140610Z 04000KT 25/18 A3016 RMK A01 T02450179  RH  067%=      5-min Rain = 0
KVA1 140611Z 02001KT 25/18 A3016 RMK A01 T02450179  RH  067%=      5-min Rain = 0
KVA1 140612Z 04000KT 24/18 A3016 RMK A01 T02440180  RH  067%=      5-min Rain = 0
KVA1 140613Z 05001KT 24/18 A3016 RMK A01 T02440182  RH  068%=      5-min Rain = 0
KVA1 140614Z 05000KT 24/19 A3016 RMK A01 T02440187  RH  071%=      5-min Rain = 0
KVA1 140615Z 05000KT 24/19 A3016 RMK A01 T02430188  RH  071%=      5-min Rain = 0
KVA1 140616Z 03001KT 24/19 A3016 RMK A01 T02430191  RH  073%=      5-min Rain = 0
KVA1 140617Z 01001KT 24/19 A3016 RMK A01 T02420189  RH  072%=      5-min Rain = 0
KVA1 140618Z 01002KT 24/19 A3016 RMK A01 T02410187  RH  072%=      5-min Rain = 0
KVA1 140619Z 01002KT 24/19 A3016 RMK A01 T02410189  RH  072%=      5-min Rain = 0
KVA1 140620Z 01002KT 24/19 A3016 RMK A01 T02410187  RH  072%=      5-min Rain = 0
KVA1 140621Z 02002KT 24/19 A3016 RMK A01 T02410187  RH  072%=      5-min Rain = 0
KVA1 140622Z 03002KT 24/19 A3016 RMK A01 T02410187  RH  072%=      5-min Rain = 0
KVA1 140623Z 03001KT 24/19 A3016 RMK A01 T02410187  RH  072%=      5-min Rain = 0
KVA1 140624Z 03000KT 24/19 A3016 RMK A01 T02400188  RH  073%=      5-min Rain = 0
KVA1 140625Z 00000KT 24/19 A3016 RMK A01 T02400186  RH  072%=      5-min Rain = 0
KVA1 140626Z 00000KT 24/18 A3016 RMK A01 T02400184  RH  071%=      5-min Rain = 0
KVA1 140627Z 00000KT 24/19 A3016 RMK A01 T02400190  RH  074%=      5-min Rain = 0
KVA1 140628Z 00000KT 24/19 A3016 RMK A01 T02400189  RH  073%=      5-min Rain = 0
KVA1 140629Z 00000KT 24/19 A3016 RMK A01 T02390190  RH  074%=      5-min Rain = 0
KVA1 140630Z 00000KT 24/19 A3016 RMK A01 T02390194  RH  076%=      5-min Rain = 0
KVA1 140631Z 00000KT 24/19 A3016 RMK A01 T02390194  RH  076%=      5-min Rain = 0
KVA1 140632Z 00000KT 24/19 A3016 RMK A01 T02380190  RH  074%=      5-min Rain = 0
KVA1 140633Z 00000KT 24/19 A3016 RMK A01 T02380193  RH  076%=      5-min Rain = 0
KVA1 140634Z 00000KT 24/20 A3016 RMK A01 T02370196  RH  077%=      5-min Rain = 0
KVA1 140635Z 00000KT 24/20 A3016 RMK A01 T02360196  RH  078%=      5-min Rain = 0
KVA1 140636Z 00000KT 24/20 A3016 RMK A01 T02360195  RH  078%=      5-min Rain = 0
KVA1 140637Z 00000KT 24/20 A3016 RMK A01 T02350196  RH  078%=      5-min Rain = 0
KVA1 140638Z 28001KT 24/20 A3016 RMK A01 T02350198  RH  080%=      5-min Rain = 0
KVA1 140639Z 28001KT 23/20 A3016 RMK A01 T02340200  RH  081%=      5-min Rain = 0
KVA1 140640Z 28001KT 23/20 A3016 RMK A01 T02340199  RH  081%=      5-min Rain = 0
KVA1 140641Z 28001KT 23/19 A3016 RMK A01 T02340194  RH  079%=      5-min Rain = 0
KVA1 140642Z 28000KT 23/19 A3016 RMK A01 T02340193  RH  078%=      5-min Rain = 0
KVA1 140643Z 00000KT 23/19 A3016 RMK A01 T02340193  RH  078%=      5-min Rain = 0
KVA1 140644Z 00000KT 23/19 A3016 RMK A01 T02340194  RH  078%=      5-min Rain = 0
KVA1 140645Z 34001KT 23/19 A3016 RMK A01 T02340192  RH  077%=      5-min Rain = 0
KVA1 140646Z 35002KT 23/19 A3016 RMK A01 T02340191  RH  077%=      5-min Rain = 0
KVA1 140647Z 35003KT 24/19 A3016 RMK A01 T02350191  RH  076%=      5-min Rain = 0
KVA1 140648Z 35003KT 24/19 A3016 RMK A01 T02350191  RH  076%=      5-min Rain = 0
KVA1 140649Z 35003KT 24/19 A3016 RMK A01 T02350192  RH  077%=      5-min Rain = 0
KVA1 140650Z 35003KT 24/19 A3016 RMK A01 T02360193  RH  077%=      5-min Rain = 0
KVA1 140651Z 35003KT 24/19 A3016 RMK A01 T02360191  RH  076%=      5-min Rain = 0
KVA1 140652Z 35003KT 24/19 A3016 RMK A01 T02350191  RH  076%=      5-min Rain = 0
KVA1 140653Z 36003KT 24/19 A3016 RMK A01 T02360191  RH  076%=      5-min Rain = 0
KVA1 140654Z 36003KT 24/19 A3016 RMK A01 T02350189  RH  075%=      5-min Rain = 0
KVA1 140655Z 35003KT 24/19 A3016 RMK A01 T02350188  RH  075%=      5-min Rain = 0
KVA1 140656Z 35003KT 24/19 A3016 RMK A01 T02350188  RH  075%=      5-min Rain = 0
KVA1 140657Z 00003KT 24/19 A3015 RMK A01 T02350191  RH  076%=      5-min Rain = 0
KVA1 140658Z 00003KT 24/19 A3015 RMK A01 T02350194  RH  078%=      5-min Rain = 0
KVA1 140659Z 00004KT 23/19 A3015 RMK A01 T02340192  RH  077%=      5-min Rain = 0
KVA1 140700Z 35004KT 23/19 A3015 RMK A01 T02340192  RH  077%=      5-min Rain = 0
KVA1 140701Z 32005KT 23/19 A3015 RMK A01 T02340192  RH  077%=      5-min Rain = 0
KVA1 140702Z 33005KT 23/19 A3015 RMK A01 T02340193  RH  078%=      5-min Rain = 0
KVA1 140703Z 33005KT 23/19 A3015 RMK A01 T02330189  RH  076%=      5-min Rain = 0
KVA1 140704Z 33005KT 23/19 A3015 RMK A01 T02330188  RH  076%=      5-min Rain = 0
KVA1 140705Z 33004KT 23/19 A3015 RMK A01 T02330188  RH  076%=      5-min Rain = 0
KVA1 140706Z 33004KT 23/19 A3015 RMK A01 T02330187  RH  075%=      5-min Rain = 0
KVA1 140707Z 33005KT 23/19 A3015 RMK A01 T02340187  RH  075%=      5-min Rain = 0
KVA1 140708Z 33005KT 23/19 A3015 RMK A01 T02330189  RH  076%=      5-min Rain = 0
KVA1 140709Z 33005KT 23/19 A3015 RMK A01 T02330189  RH  076%=      5-min Rain = 0
KVA1 140710Z 33005KT 23/19 A3015 RMK A01 T02330188  RH  076%=      5-min Rain = 0
KVA1 140711Z 34005KT 23/19 A3015 RMK A01 T02330187  RH  075%=      5-min Rain = 0
KVA1 140712Z 34005KT 23/19 A3015 RMK A01 T02330188  RH  076%=      5-min Rain = 0
KVA1 140713Z 34005KT 23/19 A3015 RMK A01 T02330189  RH  076%=      5-min Rain = 0
KVA1 140714Z 34004KT 23/19 A3015 RMK A01 T02330189  RH  076%=      5-min Rain = 0
KVA1 140715Z 33003KT 23/19 A3015 RMK A01 T02330185  RH  075%=      5-min Rain = 0
KVA1 140716Z 33003KT 23/19 A3015 RMK A01 T02330186  RH  075%=      5-min Rain = 0
KVA1 140717Z 33003KT 23/19 A3015 RMK A01 T02340187  RH  075%=      5-min Rain = 0
KVA1 140718Z 34003KT 23/18 A3015 RMK A01 T02330184  RH  074%=      5-min Rain = 0
KVA1 140719Z 32002KT 23/18 A3015 RMK A01 T02330179  RH  072%=      5-min Rain = 0
KVA1 140720Z 32002KT 23/18 A3015 RMK A01 T02340183  RH  073%=      5-min Rain = 0
KVA1 140721Z 32003KT 23/18 A3015 RMK A01 T02340184  RH  073%=      5-min Rain = 0
KVA1 140722Z 33004KT 23/18 A3015 RMK A01 T02340180  RH  072%=      5-min Rain = 0
KVA1 140723Z 34003KT 24/18 A3015 RMK A01 T02360175  RH  069%=      5-min Rain = 0
KVA1 140724Z 33002KT 24/18 A3015 RMK A01 T02370177  RH  069%=      5-min Rain = 0
KVA1 140725Z 32002KT 24/18 A3015 RMK A01 T02380179  RH  070%=      5-min Rain = 0
KVA1 140726Z 33001KT 24/18 A3015 RMK A01 T02380180  RH  070%=      5-min Rain = 0
KVA1 140727Z 32001KT 24/18 A3015 RMK A01 T02380182  RH  071%=      5-min Rain = 0
KVA1 140728Z 30001KT 24/18 A3015 RMK A01 T02380182  RH  071%=      5-min Rain = 0
KVA1 140729Z 29001KT 24/18 A3015 RMK A01 T02370182  RH  071%=      5-min Rain = 0
KVA1 140730Z 28000KT 24/18 A3015 RMK A01 T02360183  RH  072%=      5-min Rain = 0
KVA1 140731Z 32000KT 24/19 A3015 RMK A01 T02360186  RH  073%=      5-min Rain = 0
KVA1 140732Z 31000KT 24/19 A3015 RMK A01 T02350186  RH  074%=      5-min Rain = 0
KVA1 140733Z 32002KT 23/19 A3015 RMK A01 T02340187  RH  075%=      5-min Rain = 0
KVA1 140734Z 32002KT 23/19 A3015 RMK A01 T02340189  RH  076%=      5-min Rain = 0
KVA1 140735Z 32002KT 23/19 A3015 RMK A01 T02340190  RH  076%=      5-min Rain = 0
KVA1 140736Z 32002KT 23/19 A3015 RMK A01 T02330189  RH  076%=      5-min Rain = 0
KVA1 140737Z 32003KT 23/18 A3015 RMK A01 T02320183  RH  074%=      5-min Rain = 0
KVA1 140738Z 32002KT 23/18 A3015 RMK A01 T02330183  RH  074%=      5-min Rain = 0
KVA1 140739Z 33002KT 23/18 A3015 RMK A01 T02330184  RH  074%=      5-min Rain = 0
KVA1 140740Z 35002KT 23/18 A3015 RMK A01 T02330178  RH  071%=      5-min Rain = 0
KVA1 140741Z 35001KT 23/17 A3015 RMK A01 T02340173  RH  069%=      5-min Rain = 0
KVA1 140742Z 35002KT 24/17 A3015 RMK A01 T02350170  RH  067%=      5-min Rain = 0
KVA1 140743Z 33002KT 24/17 A3015 RMK A01 T02370169  RH  065%=      5-min Rain = 0
KVA1 140744Z 35002KT 24/17 A3015 RMK A01 T02390170  RH  065%=      5-min Rain = 0
KVA1 140745Z 36002KT 24/17 A3015 RMK A01 T02400174  RH  067%=      5-min Rain = 0
KVA1 140746Z 33002KT 24/18 A3015 RMK A01 T02400176  RH  067%=      5-min Rain = 0
KVA1 140747Z 33003KT 24/17 A3015 RMK A01 T02400174  RH  067%=      5-min Rain = 0
KVA1 140748Z 34003KT 24/18 A3015 RMK A01 T02400178  RH  068%=      5-min Rain = 0
KVA1 140749Z 33003KT 24/18 A3015 RMK A01 T02390176  RH  068%=      5-min Rain = 0
KVA1 140750Z 33003KT 24/18 A3015 RMK A01 T02390178  RH  069%=      5-min Rain = 0
KVA1 140751Z 33002KT 24/18 A3015 RMK A01 T02380177  RH  069%=      5-min Rain = 0
KVA1 140752Z 32001KT 24/18 A3015 RMK A01 T02370176  RH  069%=      5-min Rain = 0
KVA1 140753Z 31001KT 24/18 A3015 RMK A01 T02370176  RH  069%=      5-min Rain = 0
KVA1 140754Z 31002KT 24/18 A3015 RMK A01 T02360177  RH  069%=      5-min Rain = 0
KVA1 140755Z 31002KT 24/18 A3015 RMK A01 T02360177  RH  069%=      5-min Rain = 0
KVA1 140756Z 31003KT 24/18 A3015 RMK A01 T02350181  RH  072%=      5-min Rain = 0
KVA1 140757Z 31003KT 24/18 A3015 RMK A01 T02350182  RH  072%=      5-min Rain = 0
KVA1 140758Z 30003KT 23/18 A3015 RMK A01 T02330183  RH  073%=      5-min Rain = 0
KVA1 140759Z 31003KT 23/18 A3015 RMK A01 T02320184  RH  074%=      5-min Rain = 0
KVA1 140800Z 32003KT 23/18 A3015 RMK A01 T02310182  RH  074%=      5-min Rain = 0
KVA1 140801Z 32003KT 23/18 A3015 RMK A01 T02310183  RH  074%=      5-min Rain = 0
KVA1 140802Z 31002KT 23/19 A3015 RMK A01 T02310185  RH  075%=      5-min Rain = 0
KVA1 140803Z 31003KT 23/18 A3015 RMK A01 T02310184  RH  075%=      5-min Rain = 0
KVA1 140804Z 31003KT 23/18 A3015 RMK A01 T02300184  RH  075%=      5-min Rain = 0
KVA1 140805Z 31004KT 23/18 A3015 RMK A01 T02300183  RH  075%=      5-min Rain = 0
KVA1 140806Z 31004KT 23/18 A3015 RMK A01 T02300182  RH  074%=      5-min Rain = 0
KVA1 140807Z 31004KT 23/18 A3015 RMK A01 T02300179  RH  073%=      5-min Rain = 0
KVA1 140808Z 30004KT 23/18 A3015 RMK A01 T02310177  RH  072%=      5-min Rain = 0
KVA1 140809Z 30003KT 23/18 A3015 RMK A01 T02320180  RH  073%=      5-min Rain = 0
KVA1 140810Z 30002KT 23/18 A3015 RMK A01 T02320180  RH  073%=      5-min Rain = 0
KVA1 140811Z 29002KT 23/18 A3015 RMK A01 T02310181  RH  073%=      5-min Rain = 0
KVA1 140812Z 28002KT 23/19 A3015 RMK A01 T02310185  RH  075%=      5-min Rain = 0
KVA1 140813Z 27002KT 23/19 A3015 RMK A01 T02300186  RH  076%=      5-min Rain = 0
KVA1 140814Z 28001KT 23/19 A3015 RMK A01 T02290186  RH  077%=      5-min Rain = 0
KVA1 140815Z 29002KT 23/19 A3015 RMK A01 T02290188  RH  078%=      5-min Rain = 0
KVA1 140816Z 30002KT 23/19 A3015 RMK A01 T02280187  RH  078%=      5-min Rain = 0
KVA1 140817Z 30002KT 23/19 A3015 RMK A01 T02270188  RH  078%=      5-min Rain = 0
KVA1 140818Z 30002KT 23/19 A3014 RMK A01 T02260188  RH  079%=      5-min Rain = 0
KVA1 140819Z 30003KT 23/19 A3014 RMK A01 T02260185  RH  078%=      5-min Rain = 0
KVA1 140820Z 30003KT 23/19 A3014 RMK A01 T02250186  RH  078%=      5-min Rain = 0
KVA1 140821Z 29003KT 23/19 A3014 RMK A01 T02250185  RH  078%=      5-min Rain = 0
KVA1 140822Z 29004KT 23/18 A3014 RMK A01 T02250184  RH  077%=      5-min Rain = 0
KVA1 140823Z 29004KT 23/18 A3014 RMK A01 T02250183  RH  077%=      5-min Rain = 0
KVA1 140824Z 29004KT 23/18 A3014 RMK A01 T02260184  RH  077%=      5-min Rain = 0
KVA1 140825Z 28004KT 23/19 A3014 RMK A01 T02250185  RH  078%=      5-min Rain = 0
KVA1 140826Z 29004KT 23/19 A3014 RMK A01 T02260185  RH  078%=      5-min Rain = 0
KVA1 140827Z 29004KT 23/18 A3014 RMK A01 T02250184  RH  077%=      5-min Rain = 0
KVA1 140828Z 29004KT 23/18 A3014 RMK A01 T02250183  RH  077%=      5-min Rain = 0
KVA1 140829Z 29004KT 23/18 A3014 RMK A01 T02250183  RH  077%=      5-min Rain = 0
KVA1 140830Z 29004KT 23/18 A3014 RMK A01 T02250184  RH  077%=      5-min Rain = 0
KVA1 140831Z 29004KT 23/19 A3014 RMK A01 T02250185  RH  078%=      5-min Rain = 0
KVA1 140832Z 28004KT 23/19 A3014 RMK A01 T02250185  RH  078%=      5-min Rain = 0
KVA1 140833Z 28004KT 23/18 A3014 RMK A01 T02250184  RH  078%=      5-min Rain = 0
KVA1 140834Z 26005KT 23/18 A3014 RMK A01 T02250184  RH  078%=      5-min Rain = 0
KVA1 140835Z 27005KT 23/19 A3014 RMK A01 T02250185  RH  078%=      5-min Rain = 0
KVA1 140836Z 28005KT 22/19 A3014 RMK A01 T02240185  RH  078%=      5-min Rain = 0
KVA1 140837Z 27004KT 22/19 A3014 RMK A01 T02240185  RH  078%=      5-min Rain = 0
KVA1 140838Z 27004KT 22/18 A3014 RMK A01 T02240184  RH  078%=      5-min Rain = 0
KVA1 140839Z 27004KT 22/18 A3014 RMK A01 T02240183  RH  078%=      5-min Rain = 0
KVA1 140840Z 27005KT 22/18 A3014 RMK A01 T02240182  RH  077%=      5-min Rain = 0
KVA1 140841Z 27004KT 23/18 A3014 RMK A01 T02250183  RH  077%=      5-min Rain = 0
KVA1 140842Z 27005KT 23/18 A3014 RMK A01 T02250183  RH  077%=      5-min Rain = 0
KVA1 140843Z 26006KT 23/18 A3014 RMK A01 T02250184  RH  077%=      5-min Rain = 0
KVA1 140844Z 26005KT 23/18 A3014 RMK A01 T02250183  RH  077%=      5-min Rain = 0
KVA1 140845Z 27005KT 23/18 A3014 RMK A01 T02250182  RH  077%=      5-min Rain = 0
KVA1 140846Z 27004KT 23/18 A3014 RMK A01 T02250182  RH  076%=      5-min Rain = 0
KVA1 140847Z 28004KT 23/18 A3014 RMK A01 T02250182  RH  076%=      5-min Rain = 0
KVA1 140848Z 29004KT 23/18 A3014 RMK A01 T02250181  RH  076%=      5-min Rain = 0
KVA1 140849Z 29004KT 23/18 A3014 RMK A01 T02250182  RH  077%=      5-min Rain = 0
KVA1 140850Z 29003KT 23/18 A3014 RMK A01 T02250183  RH  077%=      5-min Rain = 0
KVA1 140851Z 29003KT 23/18 A3014 RMK A01 T02250182  RH  077%=      5-min Rain = 0
KVA1 140852Z 29003KT 23/18 A3014 RMK A01 T02250184  RH  078%=      5-min Rain = 0
KVA1 140853Z 29003KT 22/18 A3014 RMK A01 T02240184  RH  078%=      5-min Rain = 0
KVA1 140854Z 28003KT 22/18 A3014 RMK A01 T02240183  RH  078%=      5-min Rain = 0
KVA1 140855Z 28003KT 22/18 A3014 RMK A01 T02240184  RH  078%=      5-min Rain = 0
KVA1 140856Z 27003KT 22/19 A3014 RMK A01 T02230185  RH  079%=      5-min Rain = 0
KVA1 140857Z 26003KT 22/19 A3014 RMK A01 T02230187  RH  080%=      5-min Rain = 0
KVA1 140858Z 25003KT 22/19 A3014 RMK A01 T02230188  RH  081%=      5-min Rain = 0
KVA1 140859Z 25003KT 22/19 A3014 RMK A01 T02220188  RH  081%=      5-min Rain = 0
KVA1 140900Z 25004KT 22/19 A3014 RMK A01 T02220189  RH  082%=      5-min Rain = 0
KVA1 140901Z 25004KT 22/19 A3014 RMK A01 T02210189  RH  082%=      5-min Rain = 0
KVA1 140902Z 25004KT 22/19 A3014 RMK A01 T02210188  RH  082%=      5-min Rain = 0
KVA1 140903Z 25004KT 22/19 A3014 RMK A01 T02210189  RH  082%=      5-min Rain = 0
KVA1 140904Z 24005KT 22/19 A3014 RMK A01 T02210189  RH  082%=      5-min Rain = 0
KVA1 140905Z 24006KT 22/19 A3014 RMK A01 T02200188  RH  082%=      5-min Rain = 0
KVA1 140906Z 24005KT 22/19 A3014 RMK A01 T02200187  RH  082%=      5-min Rain = 0
KVA1 140907Z 24005KT 22/19 A3014 RMK A01 T02200187  RH  082%=      5-min Rain = 0
KVA1 140908Z 25004KT 22/19 A3014 RMK A01 T02200186  RH  081%=      5-min Rain = 0
KVA1 140909Z 24004KT 22/19 A3014 RMK A01 T02210186  RH  081%=      5-min Rain = 0
KVA1 140910Z 24004KT 22/19 A3014 RMK A01 T02200186  RH  081%=      5-min Rain = 0
KVA1 140911Z 24003KT 22/19 A3014 RMK A01 T02200186  RH  081%=      5-min Rain = 0
KVA1 140912Z 25003KT 22/19 A3014 RMK A01 T02200186  RH  081%=      5-min Rain = 0
KVA1 140913Z 26002KT 22/19 A3014 RMK A01 T02200185  RH  080%=      5-min Rain = 0
KVA1 140914Z 26002KT 22/19 A3014 RMK A01 T02200185  RH  080%=      5-min Rain = 0
KVA1 140915Z 27002KT 22/19 A3014 RMK A01 T02200185  RH  081%=      5-min Rain = 0
KVA1 140916Z 27003KT 22/19 A3014 RMK A01 T02210185  RH  080%=      5-min Rain = 0
KVA1 140917Z 27003KT 22/19 A3014 RMK A01 T02200186  RH  081%=      5-min Rain = 0
KVA1 140918Z 26003KT 22/19 A3014 RMK A01 T02200187  RH  081%=      5-min Rain = 0
KVA1 140919Z 26003KT 22/19 A3014 RMK A01 T02190186  RH  082%=      5-min Rain = 0
KVA1 140920Z 26003KT 22/19 A3014 RMK A01 T02190187  RH  082%=      5-min Rain = 0
KVA1 140921Z 26003KT 22/19 A3014 RMK A01 T02190187  RH  082%=      5-min Rain = 0
KVA1 140922Z 27004KT 22/19 A3013 RMK A01 T02190188  RH  083%=      5-min Rain = 0
KVA1 140923Z 26004KT 22/19 A3013 RMK A01 T02180187  RH  083%=      5-min Rain = 0
KVA1 140924Z 27003KT 22/19 A3013 RMK A01 T02180187  RH  083%=      5-min Rain = 0
KVA1 140925Z 27003KT 22/19 A3013 RMK A01 T02170187  RH  083%=      5-min Rain = 0
KVA1 140926Z 28003KT 22/19 A3013 RMK A01 T02170188  RH  084%=      5-min Rain = 0
KVA1 140927Z 28003KT 22/19 A3014 RMK A01 T02170188  RH  084%=      5-min Rain = 0
KVA1 140928Z 28003KT 22/19 A3014 RMK A01 T02160189  RH  084%=      5-min Rain = 0
KVA1 140929Z 28004KT 22/19 A3014 RMK A01 T02160188  RH  084%=      5-min Rain = 0
KVA1 140930Z 28004KT 22/19 A3014 RMK A01 T02150188  RH  084%=      5-min Rain = 0
KVA1 140931Z 28005KT 22/19 A3013 RMK A01 T02150187  RH  084%=      5-min Rain = 0
KVA1 140932Z 28005KT 22/19 A3013 RMK A01 T02150186  RH  084%=      5-min Rain = 0
KVA1 140933Z 28004KT 22/19 A3013 RMK A01 T02150186  RH  084%=      5-min Rain = 0
KVA1 140934Z 28004KT 22/19 A3013 RMK A01 T02150187  RH  084%=      5-min Rain = 0
KVA1 140935Z 28004KT 22/19 A3014 RMK A01 T02150187  RH  084%=      5-min Rain = 0
KVA1 140936Z 27004KT 21/19 A3014 RMK A01 T02140187  RH  084%=      5-min Rain = 0
KVA1 140937Z 28004KT 21/19 A3014 RMK A01 T02140186  RH  084%=      5-min Rain = 0
KVA1 140938Z 28004KT 21/19 A3013 RMK A01 T02140186  RH  084%=      5-min Rain = 0
KVA1 140939Z 28004KT 22/19 A3013 RMK A01 T02150186  RH  084%=      5-min Rain = 0
KVA1 140940Z 28005KT 21/19 A3013 RMK A01 T02140185  RH  083%=      5-min Rain = 0
KVA1 140941Z 28005KT 21/19 A3013 RMK A01 T02140185  RH  083%=      5-min Rain = 0
KVA1 140942Z 28004KT 21/19 A3013 RMK A01 T02140186  RH  084%=      5-min Rain = 0
KVA1 140943Z 28004KT 21/19 A3013 RMK A01 T02140186  RH  084%=      5-min Rain = 0
KVA1 140944Z 28004KT 21/19 A3013 RMK A01 T02140186  RH  084%=      5-min Rain = 0
KVA1 140945Z 28003KT 21/19 A3014 RMK A01 T02140185  RH  084%=      5-min Rain = 0
KVA1 140946Z 28003KT 22/19 A3014 RMK A01 T02150186  RH  084%=      5-min Rain = 0
KVA1 140947Z 28003KT 22/19 A3014 RMK A01 T02150185  RH  083%=      5-min Rain = 0
KVA1 140948Z 29003KT 22/18 A3014 RMK A01 T02150184  RH  083%=      5-min Rain = 0
KVA1 140949Z 28002KT 21/18 A3014 RMK A01 T02140184  RH  083%=      5-min Rain = 0
KVA1 140950Z 28003KT 22/19 A3014 RMK A01 T02150185  RH  083%=      5-min Rain = 0
KVA1 140951Z 28003KT 22/19 A3013 RMK A01 T02150187  RH  084%=      5-min Rain = 0
KVA1 140952Z 28004KT 22/19 A3013 RMK A01 T02150187  RH  084%=      5-min Rain = 0
KVA1 140953Z 28004KT 21/19 A3013 RMK A01 T02140186  RH  084%=      5-min Rain = 0
KVA1 140954Z 28004KT 21/19 A3013 RMK A01 T02130185  RH  084%=      5-min Rain = 0
KVA1 140955Z 28004KT 21/19 A3013 RMK A01 T02130186  RH  084%=      5-min Rain = 0
KVA1 140956Z 28004KT 21/19 A3013 RMK A01 T02130186  RH  085%=      5-min Rain = 0
KVA1 140957Z 28004KT 21/19 A3013 RMK A01 T02120187  RH  085%=      5-min Rain = 0
KVA1 140958Z 28004KT 21/19 A3013 RMK A01 T02120188  RH  086%=      5-min Rain = 0
KVA1 140959Z 27004KT 21/19 A3013 RMK A01 T02120188  RH  086%=      5-min Rain = 0
KVA1 141000Z 27004KT 21/19 A3013 RMK A01 T02120187  RH  086%=      5-min Rain = 0
KVA1 141001Z 27004KT 21/19 A3013 RMK A01 T02120186  RH  085%=      5-min Rain = 0
KVA1 141002Z 27004KT 21/19 A3013 RMK A01 T02120185  RH  085%=      5-min Rain = 0
KVA1 141003Z 27004KT 21/19 A3013 RMK A01 T02110185  RH  085%=      5-min Rain = 0
KVA1 141004Z 28004KT 21/19 A3013 RMK A01 T02110185  RH  085%=      5-min Rain = 0
KVA1 141005Z 28004KT 21/19 A3013 RMK A01 T02110185  RH  085%=      5-min Rain = 0
KVA1 141006Z 28005KT 21/18 A3013 RMK A01 T02110184  RH  084%=      5-min Rain = 0
KVA1 141007Z 29005KT 21/18 A3013 RMK A01 T02110183  RH  084%=      5-min Rain = 0
KVA1 141008Z 29005KT 21/18 A3013 RMK A01 T02110182  RH  083%=      5-min Rain = 0
KVA1 141009Z 29005KT 21/18 A3013 RMK A01 T02120181  RH  083%=      5-min Rain = 0
KVA1 141010Z 29005KT 21/18 A3013 RMK A01 T02120181  RH  082%=      5-min Rain = 0
KVA1 141011Z 28005KT 21/18 A3013 RMK A01 T02120180  RH  082%=      5-min Rain = 0
KVA1 141012Z 28005KT 21/18 A3013 RMK A01 T02130180  RH  082%=      5-min Rain = 0
KVA1 141013Z 28005KT 21/18 A3013 RMK A01 T02130179  RH  081%=      5-min Rain = 0
KVA1 141014Z 28005KT 21/18 A3013 RMK A01 T02130179  RH  081%=      5-min Rain = 0
KVA1 141015Z 29004KT 21/18 A3013 RMK A01 T02130179  RH  081%=      5-min Rain = 0
KVA1 141016Z 28004KT 21/18 A3013 RMK A01 T02130179  RH  081%=      5-min Rain = 0
KVA1 141017Z 28004KT 21/18 A3013 RMK A01 T02140179  RH  081%=      5-min Rain = 0
KVA1 141018Z 28005KT 21/18 A3013 RMK A01 T02140179  RH  081%=      5-min Rain = 0
KVA1 141019Z 28006KT 21/18 A3013 RMK A01 T02140179  RH  081%=      5-min Rain = 0
KVA1 141020Z 28005KT 21/18 A3013 RMK A01 T02130179  RH  081%=      5-min Rain = 0
KVA1 141021Z 28005KT 21/18 A3013 RMK A01 T02140179  RH  081%=      5-min Rain = 0
KVA1 141022Z 29005KT 21/18 A3013 RMK A01 T02130179  RH  081%=      5-min Rain = 0
KVA1 141023Z 29004KT 21/18 A3013 RMK A01 T02140179  RH  081%=      5-min Rain = 0
KVA1 141024Z 29004KT 21/18 A3013 RMK A01 T02130179  RH  081%=      5-min Rain = 0
KVA1 141025Z 30004KT 21/18 A3013 RMK A01 T02130179  RH  081%=      5-min Rain = 0
KVA1 141026Z 30004KT 21/18 A3013 RMK A01 T02130179  RH  081%=      5-min Rain = 0
KVA1 141027Z 30004KT 21/18 A3013 RMK A01 T02140178  RH  080%=      5-min Rain = 0
KVA1 141028Z 29004KT 21/18 A3013 RMK A01 T02140178  RH  080%=      5-min Rain = 0
KVA1 141029Z 29005KT 21/18 A3013 RMK A01 T02130179  RH  081%=      5-min Rain = 0
KVA1 141030Z 29005KT 21/18 A3013 RMK A01 T02140179  RH  081%=      5-min Rain = 0
KVA1 141031Z 29005KT 21/18 A3013 RMK A01 T02140179  RH  081%=      5-min Rain = 0
KVA1 141032Z 29005KT 21/18 A3013 RMK A01 T02130178  RH  081%=      5-min Rain = 0
KVA1 141033Z 29005KT 21/18 A3014 RMK A01 T02130178  RH  081%=      5-min Rain = 0
KVA1 141034Z 29005KT 21/18 A3014 RMK A01 T02130178  RH  080%=      5-min Rain = 0
KVA1 141035Z 29005KT 21/18 A3014 RMK A01 T02130178  RH  080%=      5-min Rain = 0
KVA1 141036Z 29005KT 21/18 A3014 RMK A01 T02130178  RH  080%=      5-min Rain = 0
KVA1 141037Z 29004KT 21/18 A3014 RMK A01 T02130177  RH  080%=      5-min Rain = 0
KVA1 141038Z 29004KT 21/18 A3014 RMK A01 T02130177  RH  080%=      5-min Rain = 0
KVA1 141039Z 29004KT 21/18 A3014 RMK A01 T02130177  RH  080%=      5-min Rain = 0
KVA1 141040Z 29004KT 21/18 A3014 RMK A01 T02130177  RH  080%=      5-min Rain = 0
KVA1 141041Z 28004KT 21/18 A3014 RMK A01 T02130178  RH  080%=      5-min Rain = 0
KVA1 141042Z 28005KT 21/18 A3014 RMK A01 T02130178  RH  081%=      5-min Rain = 0
KVA1 141043Z 28005KT 21/18 A3014 RMK A01 T02130179  RH  081%=      5-min Rain = 0
KVA1 141044Z 28005KT 21/18 A3014 RMK A01 T02120179  RH  081%=      5-min Rain = 0
KVA1 141045Z 28005KT 21/18 A3014 RMK A01 T02120179  RH  081%=      5-min Rain = 0
KVA1 141046Z 28005KT 21/18 A3014 RMK A01 T02120179  RH  081%=      5-min Rain = 0
KVA1 141047Z 27003KT 21/18 A3014 RMK A01 T02110179  RH  082%=      5-min Rain = 0
KVA1 141048Z 20001KT 21/18 A3014 RMK A01 T02110180  RH  083%=      5-min Rain = 0
KVA1 141049Z 18001KT 21/18 A3013 RMK A01 T02110181  RH  083%=      5-min Rain = 0
KVA1 141050Z 22000KT 21/18 A3013 RMK A01 T02110181  RH  083%=      5-min Rain = 0
KVA1 141051Z 29001KT 21/18 A3013 RMK A01 T02100181  RH  083%=      5-min Rain = 0
KVA1 141052Z 29002KT 21/18 A3013 RMK A01 T02100181  RH  083%=      5-min Rain = 0
KVA1 141053Z 28001KT 21/18 A3013 RMK A01 T02100181  RH  083%=      5-min Rain = 0
KVA1 141054Z 18000KT 21/18 A3013 RMK A01 T02100182  RH  084%=      5-min Rain = 0
KVA1 141055Z 18002KT 21/18 A3013 RMK A01 T02100182  RH  084%=      5-min Rain = 0
KVA1 141056Z 21001KT 21/18 A3013 RMK A01 T02100181  RH  084%=      5-min Rain = 0
KVA1 141057Z 23002KT 21/18 A3013 RMK A01 T02100182  RH  084%=      5-min Rain = 0
KVA1 141058Z 23001KT 21/18 A3013 RMK A01 T02100183  RH  084%=      5-min Rain = 0
KVA1 141059Z 22001KT 21/18 A3013 RMK A01 T02100184  RH  085%=      5-min Rain = 0
KVA1 141100Z 23001KT 21/19 A3013 RMK A01 T02100186  RH  086%=      5-min Rain = 0
KVA1 141101Z 24002KT 21/18 A3013 RMK A01 T02100183  RH  085%=      5-min Rain = 0
KVA1 141102Z 25002KT 21/18 A3013 RMK A01 T02100181  RH  083%=      5-min Rain = 0
KVA1 141103Z 26002KT 21/18 A3013 RMK A01 T02100181  RH  084%=      5-min Rain = 0
KVA1 141104Z 27001KT 21/18 A3014 RMK A01 T02090181  RH  084%=      5-min Rain = 0
KVA1 141105Z 27001KT 21/18 A3013 RMK A01 T02090182  RH  085%=      5-min Rain = 0
KVA1 141106Z 27001KT 21/18 A3013 RMK A01 T02080182  RH  085%=      5-min Rain = 0
KVA1 141107Z 27002KT 21/18 A3013 RMK A01 T02080183  RH  086%=      5-min Rain = 0
KVA1 141108Z 28002KT 21/18 A3013 RMK A01 T02070183  RH  086%=      5-min Rain = 0
KVA1 141109Z 28002KT 21/18 A3013 RMK A01 T02060183  RH  087%=      5-min Rain = 0
KVA1 141110Z 29002KT 21/18 A3013 RMK A01 T02060184  RH  087%=      5-min Rain = 0
KVA1 141111Z 29002KT 20/18 A3013 RMK A01 T02040184  RH  088%=      5-min Rain = 0
KVA1 141112Z 30002KT 20/19 A3013 RMK A01 T02040185  RH  088%=      5-min Rain = 0
KVA1 141113Z 30002KT 20/18 A3013 RMK A01 T02030184  RH  089%=      5-min Rain = 0
KVA1 141114Z 31002KT 20/18 A3013 RMK A01 T02030184  RH  089%=      5-min Rain = 0
KVA1 141115Z 32002KT 20/18 A3013 RMK A01 T02030184  RH  089%=      5-min Rain = 0
KVA1 141116Z 32002KT 20/18 A3013 RMK A01 T02020184  RH  089%=      5-min Rain = 0
KVA1 141117Z 33002KT 20/18 A3014 RMK A01 T02020183  RH  089%=      5-min Rain = 0
KVA1 141118Z 34003KT 20/18 A3014 RMK A01 T02020184  RH  089%=      5-min Rain = 0
KVA1 141119Z 34003KT 20/18 A3014 RMK A01 T02020184  RH  089%=      5-min Rain = 0
KVA1 141120Z 35002KT 20/18 A3014 RMK A01 T02020184  RH  089%=      5-min Rain = 0
KVA1 141121Z 35003KT 20/18 A3014 RMK A01 T02020182  RH  089%=      5-min Rain = 0
KVA1 141122Z 36003KT 20/18 A3014 RMK A01 T02020181  RH  088%=      5-min Rain = 0
KVA1 141123Z 36003KT 20/18 A3014 RMK A01 T02030179  RH  086%=      5-min Rain = 0
KVA1 141124Z 35003KT 20/18 A3014 RMK A01 T02040179  RH  085%=      5-min Rain = 0
KVA1 141125Z 35004KT 21/18 A3014 RMK A01 T02050179  RH  085%=      5-min Rain = 0
KVA1 141126Z 35004KT 21/18 A3014 RMK A01 T02060179  RH  084%=      5-min Rain = 0
KVA1 141127Z 35004KT 21/18 A3014 RMK A01 T02060180  RH  085%=      5-min Rain = 0
KVA1 141128Z 35005KT 21/18 A3014 RMK A01 T02060180  RH  085%=      5-min Rain = 0
KVA1 141129Z 35005KT 21/18 A3014 RMK A01 T02060180  RH  085%=      5-min Rain = 0
KVA1 141130Z 36005KT 21/18 A3014 RMK A01 T02060180  RH  085%=      5-min Rain = 0
KVA1 141131Z 36005KT 21/18 A3014 RMK A01 T02050181  RH  086%=      5-min Rain = 0
KVA1 141132Z 00005KT 21/18 A3014 RMK A01 T02050181  RH  086%=      5-min Rain = 0
KVA1 141133Z 00005KT 21/18 A3014 RMK A01 T02050180  RH  086%=      5-min Rain = 0
KVA1 141134Z 00005KT 21/18 A3014 RMK A01 T02050180  RH  085%=      5-min Rain = 0
KVA1 141135Z 00004KT 21/18 A3014 RMK A01 T02060180  RH  085%=      5-min Rain = 0
KVA1 141136Z 00004KT 21/18 A3014 RMK A01 T02060181  RH  086%=      5-min Rain = 0
KVA1 141137Z 01004KT 21/18 A3014 RMK A01 T02060181  RH  086%=      5-min Rain = 0
KVA1 141138Z 01004KT 21/18 A3014 RMK A01 T02060182  RH  086%=      5-min Rain = 0
KVA1 141139Z 02004KT 21/18 A3014 RMK A01 T02060183  RH  086%=      5-min Rain = 0
KVA1 141140Z 01004KT 21/18 A3015 RMK A01 T02060184  RH  087%=      5-min Rain = 0
KVA1 141141Z 01004KT 21/18 A3015 RMK A01 T02060184  RH  088%=      5-min Rain = 0
KVA1 141142Z 01004KT 21/18 A3015 RMK A01 T02050184  RH  088%=      5-min Rain = 0
KVA1 141143Z 01004KT 20/18 A3015 RMK A01 T02040184  RH  088%=      5-min Rain = 0
KVA1 141144Z 00004KT 20/18 A3015 RMK A01 T02040184  RH  088%=      5-min Rain = 0
KVA1 141145Z 01003KT 20/18 A3015 RMK A01 T02040184  RH  088%=      5-min Rain = 0
KVA1 141146Z 00003KT 20/18 A3015 RMK A01 T02030184  RH  088%=      5-min Rain = 0
KVA1 141147Z 00003KT 20/18 A3015 RMK A01 T02030183  RH  088%=      5-min Rain = 0
KVA1 141148Z 00002KT 20/18 A3015 RMK A01 T02030183  RH  088%=      5-min Rain = 0
KVA1 141149Z 00002KT 20/18 A3015 RMK A01 T02030183  RH  088%=      5-min Rain = 0
KVA1 141150Z 00002KT 20/18 A3015 RMK A01 T02030184  RH  089%=      5-min Rain = 0
KVA1 141151Z 00002KT 20/18 A3015 RMK A01 T02030184  RH  089%=      5-min Rain = 0
KVA1 141152Z 00001KT 20/18 A3015 RMK A01 T02030184  RH  089%=      5-min Rain = 0
KVA1 141153Z 35001KT 20/18 A3015 RMK A01 T02020184  RH  089%=      5-min Rain = 0
KVA1 141154Z 33001KT 20/18 A3015 RMK A01 T02020184  RH  089%=      5-min Rain = 0
KVA1 141155Z 33002KT 20/18 A3015 RMK A01 T02010183  RH  089%=      5-min Rain = 0
KVA1 141156Z 33002KT 20/18 A3015 RMK A01 T02010182  RH  089%=      5-min Rain = 0
KVA1 141157Z 33002KT 20/18 A3015 RMK A01 T02000182  RH  089%=      5-min Rain = 0
KVA1 141158Z 32002KT 20/18 A3015 RMK A01 T02000182  RH  089%=      5-min Rain = 0
KVA1 141159Z 32002KT 20/18 A3015 RMK A01 T02000183  RH  090%=      5-min Rain = 0
KVA1 141200Z 32002KT 20/18 A3015 RMK A01 T02000183  RH  090%=      5-min Rain = 0
KVA1 141201Z 32002KT 20/18 A3015 RMK A01 T01990183  RH  090%=      5-min Rain = 0
KVA1 141202Z 32002KT 20/18 A3015 RMK A01 T01990183  RH  091%=      5-min Rain = 0
KVA1 141203Z 31002KT 20/18 A3015 RMK A01 T01990183  RH  091%=      5-min Rain = 0
KVA1 141204Z 31002KT 20/18 A3015 RMK A01 T01980183  RH  091%=      5-min Rain = 0
KVA1 141205Z 32002KT 20/18 A3015 RMK A01 T01980183  RH  091%=      5-min Rain = 0
KVA1 141206Z 32003KT 20/18 A3015 RMK A01 T01980183  RH  091%=      5-min Rain = 0
KVA1 141207Z 33003KT 20/18 A3015 RMK A01 T01980184  RH  091%=      5-min Rain = 0
KVA1 141208Z 34003KT 20/18 A3015 RMK A01 T01980184  RH  092%=      5-min Rain = 0
KVA1 141209Z 34002KT 20/18 A3015 RMK A01 T01970184  RH  092%=      5-min Rain = 0
KVA1 141210Z 34002KT 20/19 A3015 RMK A01 T01980185  RH  092%=      5-min Rain = 0
KVA1 141211Z 35003KT 20/19 A3015 RMK A01 T01980185  RH  092%=      5-min Rain = 0
KVA1 141212Z 36002KT 20/19 A3015 RMK A01 T01980185  RH  093%=      5-min Rain = 0
KVA1 141213Z 36002KT 20/19 A3015 RMK A01 T01970185  RH  093%=      5-min Rain = 0
KVA1 141214Z 35002KT 20/19 A3015 RMK A01 T01970185  RH  093%=      5-min Rain = 0
KVA1 141215Z 35001KT 20/19 A3015 RMK A01 T01970185  RH  093%=      5-min Rain = 0
KVA1 141216Z 35001KT 20/18 A3016 RMK A01 T01960184  RH  093%=      5-min Rain = 0
KVA1 141217Z 36001KT 20/18 A3016 RMK A01 T01960183  RH  092%=      5-min Rain = 0
KVA1 141218Z 35002KT 20/18 A3016 RMK A01 T01960182  RH  092%=      5-min Rain = 0
KVA1 141219Z 35002KT 20/18 A3016 RMK A01 T01960183  RH  092%=      5-min Rain = 0
KVA1 141220Z 35003KT 20/18 A3016 RMK A01 T01960184  RH  093%=      5-min Rain = 0
KVA1 141221Z 35003KT 20/18 A3016 RMK A01 T01960183  RH  092%=      5-min Rain = 0
KVA1 141222Z 35003KT 20/18 A3016 RMK A01 T01970183  RH  092%=      5-min Rain = 0
KVA1 141223Z 35003KT 20/18 A3016 RMK A01 T01970182  RH  091%=      5-min Rain = 0
KVA1 141224Z 34003KT 20/18 A3016 RMK A01 T01970181  RH  091%=      5-min Rain = 0
KVA1 141225Z 34003KT 20/18 A3016 RMK A01 T01970180  RH  090%=      5-min Rain = 0
KVA1 141226Z 34003KT 20/18 A3016 RMK A01 T01960179  RH  089%=      5-min Rain = 0
KVA1 141227Z 34003KT 20/18 A3016 RMK A01 T01970179  RH  089%=      5-min Rain = 0
KVA1 141228Z 34003KT 20/18 A3016 RMK A01 T01970178  RH  089%=      5-min Rain = 0
KVA1 141229Z 34003KT 20/18 A3016 RMK A01 T01970179  RH  089%=      5-min Rain = 0
KVA1 141230Z 34003KT 20/18 A3016 RMK A01 T01970179  RH  089%=      5-min Rain = 0
KVA1 141231Z 34003KT 20/18 A3016 RMK A01 T01980179  RH  089%=      5-min Rain = 0
KVA1 141232Z 34003KT 20/18 A3016 RMK A01 T01980179  RH  089%=      5-min Rain = 0
KVA1 141233Z 34003KT 20/18 A3016 RMK A01 T01980180  RH  089%=      5-min Rain = 0
KVA1 141234Z 34003KT 20/18 A3016 RMK A01 T01980180  RH  090%=      5-min Rain = 0
KVA1 141235Z 35003KT 20/18 A3016 RMK A01 T01980181  RH  090%=      5-min Rain = 0
KVA1 141236Z 35003KT 20/18 A3016 RMK A01 T01970181  RH  090%=      5-min Rain = 0
KVA1 141237Z 35003KT 20/18 A3016 RMK A01 T01970181  RH  090%=      5-min Rain = 0
KVA1 141238Z 36003KT 20/18 A3016 RMK A01 T01970182  RH  091%=      5-min Rain = 0
KVA1 141239Z 36003KT 20/18 A3016 RMK A01 T01970181  RH  090%=      5-min Rain = 0
KVA1 141240Z 00002KT 20/18 A3016 RMK A01 T01970181  RH  090%=      5-min Rain = 0
KVA1 141241Z 00002KT 20/18 A3016 RMK A01 T01970182  RH  091%=      5-min Rain = 0
KVA1 141242Z 01002KT 20/18 A3017 RMK A01 T01980182  RH  091%=      5-min Rain = 0
KVA1 141243Z 02002KT 20/18 A3017 RMK A01 T01980183  RH  091%=      5-min Rain = 0
KVA1 141244Z 03003KT 20/18 A3017 RMK A01 T01970182  RH  091%=      5-min Rain = 0
KVA1 141245Z 05002KT 20/18 A3017 RMK A01 T01970182  RH  091%=      5-min Rain = 0
KVA1 141246Z 06003KT 20/18 A3017 RMK A01 T01970182  RH  091%=      5-min Rain = 0
KVA1 141247Z 06004KT 20/18 A3017 RMK A01 T01970182  RH  091%=      5-min Rain = 0
KVA1 141248Z 06004KT 20/18 A3017 RMK A01 T01970181  RH  091%=      5-min Rain = 0
KVA1 141249Z 06004KT 20/18 A3017 RMK A01 T01970180  RH  090%=      5-min Rain = 0
KVA1 141250Z 06004KT 20/18 A3017 RMK A01 T01980180  RH  090%=      5-min Rain = 0
KVA1 141251Z 06004KT 20/18 A3017 RMK A01 T01980180  RH  089%=      5-min Rain = 0
KVA1 141252Z 07004KT 20/18 A3018 RMK A01 T01990181  RH  089%=      5-min Rain = 0
KVA1 141253Z 06003KT 20/18 A3018 RMK A01 T02000182  RH  089%=      5-min Rain = 0
KVA1 141254Z 06003KT 20/18 A3018 RMK A01 T02000183  RH  090%=      5-min Rain = 0
KVA1 141255Z 06003KT 20/18 A3018 RMK A01 T02010184  RH  090%=      5-min Rain = 0
KVA1 141256Z 05003KT 20/18 A3018 RMK A01 T02010184  RH  090%=      5-min Rain = 0
KVA1 141257Z 05003KT 20/18 A3018 RMK A01 T02020183  RH  089%=      5-min Rain = 0
KVA1 141258Z 05002KT 20/18 A3018 RMK A01 T02020183  RH  089%=      5-min Rain = 0
KVA1 141259Z 05002KT 20/18 A3018 RMK A01 T02030184  RH  088%=      5-min Rain = 0
KVA1 141300Z 05003KT 20/18 A3018 RMK A01 T02040183  RH  088%=      5-min Rain = 0
KVA1 141301Z 04003KT 21/18 A3018 RMK A01 T02050184  RH  088%=      5-min Rain = 0
KVA1 141302Z 03003KT 21/18 A3018 RMK A01 T02060183  RH  087%=      5-min Rain = 0
KVA1 141303Z 04003KT 21/18 A3018 RMK A01 T02060183  RH  086%=      5-min Rain = 0
KVA1 141304Z 04004KT 21/18 A3018 RMK A01 T02070184  RH  087%=      5-min Rain = 0
KVA1 141305Z 04004KT 21/18 A3018 RMK A01 T02070184  RH  087%=      5-min Rain = 0
KVA1 141306Z 04004KT 21/18 A3019 RMK A01 T02070184  RH  086%=      5-min Rain = 0
KVA1 141307Z 03004KT 21/18 A3019 RMK A01 T02080184  RH  086%=      5-min Rain = 0
KVA1 141308Z 02003KT 21/18 A3018 RMK A01 T02080184  RH  086%=      5-min Rain = 0
KVA1 141309Z 02004KT 21/18 A3018 RMK A01 T02090183  RH  085%=      5-min Rain = 0
KVA1 141310Z 02004KT 21/18 A3018 RMK A01 T02090182  RH  085%=      5-min Rain = 0
KVA1 141311Z 02005KT 21/18 A3019 RMK A01 T02100182  RH  084%=      5-min Rain = 0
KVA1 141312Z 02005KT 21/18 A3019 RMK A01 T02100182  RH  084%=      5-min Rain = 0
KVA1 141313Z 02005KT 21/18 A3019 RMK A01 T02110181  RH  083%=      5-min Rain = 0
KVA1 141314Z 02005KT 21/18 A3019 RMK A01 T02110180  RH  082%=      5-min Rain = 0
KVA1 141315Z 02004KT 21/18 A3019 RMK A01 T02110181  RH  083%=      5-min Rain = 0
KVA1 141316Z 02004KT 21/18 A3019 RMK A01 T02120179  RH  081%=      5-min Rain = 0
KVA1 141317Z 02004KT 21/18 A3019 RMK A01 T02130178  RH  080%=      5-min Rain = 0
KVA1 141318Z 03003KT 21/18 A3019 RMK A01 T02140178  RH  080%=      5-min Rain = 0
KVA1 141319Z 03004KT 22/18 A3019 RMK A01 T02150177  RH  079%=      5-min Rain = 0
KVA1 141320Z 03004KT 22/18 A3019 RMK A01 T02150176  RH  078%=      5-min Rain = 0
KVA1 141321Z 03004KT 22/18 A3019 RMK A01 T02160176  RH  078%=      5-min Rain = 0
KVA1 141322Z 03004KT 22/18 A3019 RMK A01 T02160175  RH  077%=      5-min Rain = 0
KVA1 141323Z 03004KT 22/18 A3019 RMK A01 T02170175  RH  077%=      5-min Rain = 0
KVA1 141324Z 03004KT 22/18 A3019 RMK A01 T02170176  RH  077%=      5-min Rain = 0
KVA1 141325Z 02003KT 22/17 A3019 RMK A01 T02180174  RH  076%=      5-min Rain = 0
KVA1 141326Z 03003KT 22/18 A3019 RMK A01 T02190175  RH  076%=      5-min Rain = 0
KVA1 141327Z 04003KT 22/17 A3019 RMK A01 T02200174  RH  075%=      5-min Rain = 0
KVA1 141328Z 05002KT 22/18 A3019 RMK A01 T02200175  RH  075%=      5-min Rain = 0
KVA1 141329Z 05003KT 22/17 A3019 RMK A01 T02210174  RH  075%=      5-min Rain = 0
KVA1 141330Z 05003KT 22/17 A3019 RMK A01 T02220173  RH  074%=      5-min Rain = 0
KVA1 141331Z 04004KT 22/17 A3019 RMK A01 T02230172  RH  073%=      5-min Rain = 0
KVA1 141332Z 03004KT 22/17 A3019 RMK A01 T02230171  RH  072%=      5-min Rain = 0
KVA1 141333Z 03004KT 22/17 A3019 RMK A01 T02240173  RH  073%=      5-min Rain = 0
KVA1 141334Z 02004KT 23/17 A302 RMK A01 T02250172  RH  072%=      5-min Rain = 0
KVA1 141335Z 01005KT 23/17 A302 RMK A01 T02250173  RH  072%=      5-min Rain = 0
KVA1 141336Z 01004KT 23/17 A302 RMK A01 T02250174  RH  073%=      5-min Rain = 0
KVA1 141337Z 02004KT 23/17 A302 RMK A01 T02250174  RH  073%=      5-min Rain = 0
KVA1 141338Z 01005KT 23/17 A302 RMK A01 T02250173  RH  073%=      5-min Rain = 0
KVA1 141339Z 02003KT 22/17 A302 RMK A01 T02240174  RH  073%=      5-min Rain = 0
KVA1 141340Z 01005KT 22/17 A302 RMK A01 T02240174  RH  073%=      5-min Rain = 0
KVA1 141341Z 01005KT 23/17 A302 RMK A01 T02250173  RH  073%=      5-min Rain = 0
KVA1 141342Z 01005KT 23/17 A302 RMK A01 T02250172  RH  072%=      5-min Rain = 0
KVA1 141343Z 01005KT 22/17 A302 RMK A01 T02240171  RH  072%=      5-min Rain = 0
KVA1 141344Z 01004KT 22/17 A302 RMK A01 T02230170  RH  072%=      5-min Rain = 0
KVA1 141345Z 01004KT 22/17 A302 RMK A01 T02230168  RH  071%=      5-min Rain = 0
KVA1 141346Z 01004KT 22/17 A302 RMK A01 T02230170  RH  072%=      5-min Rain = 0
KVA1 141347Z 01003KT 22/17 A302 RMK A01 T02230170  RH  072%=      5-min Rain = 0
KVA1 141348Z 04001KT 22/17 A302 RMK A01 T02230173  RH  073%=      5-min Rain = 0
KVA1 141349Z 03002KT 22/17 A302 RMK A01 T02240172  RH  072%=      5-min Rain = 0
KVA1 141350Z 03003KT 23/17 A302 RMK A01 T02250167  RH  070%=      5-min Rain = 0
KVA1 141351Z 02003KT 23/17 A302 RMK A01 T02250168  RH  070%=      5-min Rain = 0
KVA1 141352Z 02002KT 23/17 A302 RMK A01 T02250169  RH  071%=      5-min Rain = 0
KVA1 141353Z 02003KT 23/17 A302 RMK A01 T02260169  RH  071%=      5-min Rain = 0
KVA1 141354Z 02003KT 23/17 A302 RMK A01 T02260168  RH  070%=      5-min Rain = 0
KVA1 141355Z 02003KT 23/17 A302 RMK A01 T02260168  RH  070%=      5-min Rain = 0
KVA1 141356Z 03003KT 23/17 A302 RMK A01 T02260168  RH  070%=      5-min Rain = 0
KVA1 141357Z 02002KT 23/17 A302 RMK A01 T02260167  RH  069%=      5-min Rain = 0
KVA1 141358Z 03002KT 23/17 A302 RMK A01 T02260168  RH  070%=      5-min Rain = 0
KVA1 141359Z 03002KT 23/17 A302 RMK A01 T02260169  RH  070%=      5-min Rain = 0
KVA1 141400Z 03001KT 23/17 A302 RMK A01 T02260170  RH  071%=      5-min Rain = 0
KVA1 141401Z 04002KT 23/17 A302 RMK A01 T02270167  RH  069%=      5-min Rain = 0
KVA1 141402Z 03003KT 23/16 A302 RMK A01 T02280163  RH  067%=      5-min Rain = 0
KVA1 141403Z 01002KT 23/16 A302 RMK A01 T02280164  RH  067%=      5-min Rain = 0
KVA1 141404Z 36002KT 23/17 A302 RMK A01 T02290168  RH  068%=      5-min Rain = 0
KVA1 141405Z 00002KT 23/17 A302 RMK A01 T02310167  RH  067%=      5-min Rain = 0
KVA1 141406Z 35002KT 23/17 A302 RMK A01 T02320167  RH  067%=      5-min Rain = 0
KVA1 141407Z 01002KT 23/17 A302 RMK A01 T02330167  RH  067%=      5-min Rain = 0
KVA1 141408Z 03001KT 23/16 A302 RMK A01 T02340163  RH  065%=      5-min Rain = 0
KVA1 141409Z 04001KT 23/16 A302 RMK A01 T02340163  RH  064%=      5-min Rain = 0
KVA1 141410Z 01002KT 24/16 A302 RMK A01 T02350164  RH  064%=      5-min Rain = 0
KVA1 141411Z 02002KT 24/16 A302 RMK A01 T02370159  RH  062%=      5-min Rain = 0
KVA1 141412Z 01001KT 24/16 A302 RMK A01 T02370161  RH  062%=      5-min Rain = 0
KVA1 141413Z 35002KT 24/16 A302 RMK A01 T02380162  RH  062%=      5-min Rain = 0
KVA1 141414Z 00002KT 24/16 A302 RMK A01 T02390162  RH  062%=      5-min Rain = 0
KVA1 141415Z 00002KT 24/16 A302 RMK A01 T02390163  RH  063%=      5-min Rain = 0
KVA1 141416Z 01001KT 24/16 A302 RMK A01 T02380164  RH  063%=      5-min Rain = 0
KVA1 141417Z 35002KT 24/17 A302 RMK A01 T02390165  RH  063%=      5-min Rain = 0
KVA1 141418Z 35002KT 24/16 A302 RMK A01 T02400164  RH  063%=      5-min Rain = 0
KVA1 141419Z 02002KT 24/16 A302 RMK A01 T02400160  RH  061%=      5-min Rain = 0
KVA1 141420Z 03001KT 24/16 A302 RMK A01 T02390160  RH  061%=      5-min Rain = 0
KVA1 141421Z 36002KT 24/16 A302 RMK A01 T02380162  RH  062%=      5-min Rain = 0
KVA1 141422Z 36001KT 24/16 A302 RMK A01 T02380162  RH  063%=      5-min Rain = 0
KVA1 141423Z 01001KT 24/16 A302 RMK A01 T02370162  RH  063%=      5-min Rain = 0
KVA1 141424Z 04001KT 24/16 A302 RMK A01 T02370162  RH  063%=      5-min Rain = 0
KVA1 141425Z 35001KT 24/16 A302 RMK A01 T02370163  RH  063%=      5-min Rain = 0
KVA1 141426Z 06001KT 24/16 A302 RMK A01 T02380162  RH  063%=      5-min Rain = 0
KVA1 141427Z 03001KT 24/16 A302 RMK A01 T02390163  RH  063%=      5-min Rain = 0
KVA1 141428Z 03001KT 24/16 A302 RMK A01 T02400162  RH  062%=      5-min Rain = 0
KVA1 141429Z 05001KT 24/16 A302 RMK A01 T02410163  RH  062%=      5-min Rain = 0
KVA1 141430Z 05001KT 24/16 A302 RMK A01 T02420164  RH  062%=      5-min Rain = 0
KVA1 141431Z 05002KT 24/16 A302 RMK A01 T02440161  RH  060%=      5-min Rain = 0
KVA1 141432Z 05002KT 25/16 A302 RMK A01 T02450163  RH  060%=      5-min Rain = 0
KVA1 141433Z 05002KT 25/17 A3021 RMK A01 T02450165  RH  061%=      5-min Rain = 0
KVA1 141434Z 06002KT 25/16 A3021 RMK A01 T02460163  RH  060%=      5-min Rain = 0
KVA1 141435Z 07003KT 25/16 A3021 RMK A01 T02470164  RH  060%=      5-min Rain = 0
KVA1 141436Z 06002KT 25/16 A3021 RMK A01 T02470162  RH  059%=      5-min Rain = 0
KVA1 141437Z 07002KT 25/16 A3021 RMK A01 T02470163  RH  060%=      5-min Rain = 0
KVA1 141438Z 08003KT 25/16 A3021 RMK A01 T02470163  RH  059%=      5-min Rain = 0
KVA1 141439Z 05003KT 25/16 A3021 RMK A01 T02490164  RH  059%=      5-min Rain = 0
KVA1 141440Z 05003KT 25/16 A3021 RMK A01 T02490163  RH  059%=      5-min Rain = 0
KVA1 141441Z 05001KT 25/17 A3021 RMK A01 T02500167  RH  060%=      5-min Rain = 0
KVA1 141442Z 09003KT 25/17 A3021 RMK A01 T02510169  RH  060%=      5-min Rain = 0
KVA1 141443Z 08003KT 25/16 A3021 RMK A01 T02520164  RH  058%=      5-min Rain = 0
KVA1 141444Z 08003KT 25/17 A3021 RMK A01 T02510168  RH  060%=      5-min Rain = 0
KVA1 141445Z 08002KT 25/17 A3021 RMK A01 T02510167  RH  059%=      5-min Rain = 0
KVA1 141446Z 11004KT 25/17 A3021 RMK A01 T02510168  RH  060%=      5-min Rain = 0
KVA1 141447Z 09004KT 25/17 A3021 RMK A01 T02520171  RH  061%=      5-min Rain = 0
KVA1 141448Z 09006KT 25/17 A3021 RMK A01 T02530169  RH  060%=      5-min Rain = 0
KVA1 141449Z 09005KT 25/17 A3021 RMK A01 T02530170  RH  060%=      5-min Rain = 0
KVA1 141450Z 08003KT 25/17 A3021 RMK A01 T02520173  RH  062%=      5-min Rain = 0
KVA1 141451Z 08005KT 25/17 A3021 RMK A01 T02530172  RH  061%=      5-min Rain = 0
KVA1 141452Z 10005KT 25/17 A3021 RMK A01 T02530171  RH  060%=      5-min Rain = 0
KVA1 141453Z 09004KT 25/17 A3021 RMK A01 T02520169  RH  060%=      5-min Rain = 0
KVA1 141454Z 08004KT 25/17 A3021 RMK A01 T02500169  RH  061%=      5-min Rain = 0
KVA1 141455Z 10004KT 25/17 A3021 RMK A01 T02490170  RH  061%=      5-min Rain = 0
KVA1 141456Z 09004KT 25/17 A3021 RMK A01 T02490170  RH  061%=      5-min Rain = 0
KVA1 141457Z 08003KT 25/17 A3021 RMK A01 T02490172  RH  062%=      5-min Rain = 0
KVA1 141458Z 07002KT 25/17 A3021 RMK A01 T02510174  RH  062%=      5-min Rain = 0
KVA1 141459Z 06003KT 25/17 A3021 RMK A01 T02520172  RH  061%=      5-min Rain = 0
KVA1 141500Z 05003KT 25/17 A3021 RMK A01 T02530168  RH  060%=      5-min Rain = 0
KVA1 141501Z 06003KT 25/17 A3021 RMK A01 T02520170  RH  060%=      5-min Rain = 0
KVA1 141502Z 05002KT 25/17 A3021 RMK A01 T02530168  RH  059%=      5-min Rain = 0
KVA1 141503Z 04003KT 25/17 A3021 RMK A01 T02520168  RH  060%=      5-min Rain = 0
KVA1 141504Z 03004KT 25/17 A3021 RMK A01 T02520169  RH  060%=      5-min Rain = 0
KVA1 141505Z 04003KT 25/17 A3021 RMK A01 T02520172  RH  061%=      5-min Rain = 0
KVA1 141506Z 06004KT 25/18 A3021 RMK A01 T02540176  RH  062%=      5-min Rain = 0
KVA1 141507Z 06004KT 26/17 A3021 RMK A01 T02550171  RH  060%=      5-min Rain = 0
KVA1 141508Z 05005KT 26/17 A3021 RMK A01 T02550170  RH  059%=      5-min Rain = 0
KVA1 141509Z 04005KT 26/17 A3021 RMK A01 T02550171  RH  060%=      5-min Rain = 0
KVA1 141510Z 04005KT 26/17 A3021 RMK A01 T02550174  RH  061%=      5-min Rain = 0
KVA1 141511Z 05005KT 26/18 A3021 RMK A01 T02560175  RH  061%=      5-min Rain = 0
KVA1 141512Z 05006KT 26/17 A3021 RMK A01 T02570173  RH  060%=      5-min Rain = 0
KVA1 141513Z 04004KT 26/18 A3021 RMK A01 T02580179  RH  062%=      5-min Rain = 0
KVA1 141514Z 02005KT 26/18 A3021 RMK A01 T02590175  RH  060%=      5-min Rain = 0
KVA1 141515Z 03004KT 26/18 A3021 RMK A01 T02600175  RH  060%=      5-min Rain = 0
KVA1 141516Z 02004KT 26/17 A3021 RMK A01 T02600171  RH  058%=      5-min Rain = 0
KVA1 141517Z 04005KT 26/17 A3021 RMK A01 T02610172  RH  058%=      5-min Rain = 0
KVA1 141518Z 05005KT 26/17 A3021 RMK A01 T02600174  RH  059%=      5-min Rain = 0
KVA1 141519Z 04006KT 26/18 A3021 RMK A01 T02610175  RH  059%=      5-min Rain = 0
KVA1 141520Z 02005KT 26/18 A3021 RMK A01 T02620177  RH  060%=      5-min Rain = 0
KVA1 141521Z 01007KT 26/18 A3022 RMK A01 T02630176  RH  059%=      5-min Rain = 0
KVA1 141522Z 03006KT 26/17 A3022 RMK A01 T02640172  RH  057%=      5-min Rain = 0
KVA1 141523Z 03006KT 27/18 A3022 RMK A01 T02650177  RH  058%=      5-min Rain = 0
KVA1 141524Z 03005KT 27/18 A3022 RMK A01 T02670177  RH  058%=      5-min Rain = 0
KVA1 141525Z 02006KT 27/17 A3022 RMK A01 T02670173  RH  056%=      5-min Rain = 0
KVA1 141526Z 03008KT 27/17 A3022 RMK A01 T02680169  RH  055%=      5-min Rain = 0
KVA1 141527Z 04006KT 27/17 A3022 RMK A01 T02690170  RH  055%=      5-min Rain = 0
KVA1 141528Z 05007KT 27/17 A3022 RMK A01 T02690170  RH  054%=      5-min Rain = 0
KVA1 141529Z 04007KT 27/17 A3022 RMK A01 T02700168  RH  054%=      5-min Rain = 0
KVA1 141530Z 03006KT 27/17 A3022 RMK A01 T02700166  RH  053%=      5-min Rain = 0
KVA1 141531Z 02006KT 27/17 A3022 RMK A01 T02710168  RH  053%=      5-min Rain = 0
KVA1 141532Z 01007KT 27/16 A3022 RMK A01 T02730161  RH  051%=      5-min Rain = 0
KVA1 141533Z 02008KT 27/16 A3022 RMK A01 T02730163  RH  051%=      5-min Rain = 0
KVA1 141534Z 02006KT 27/17 A3022 RMK A01 T02740165  RH  051%=      5-min Rain = 0
KVA1 141535Z 04005KT 28/17 A3022 RMK A01 T02750166  RH  052%=      5-min Rain = 0
KVA1 141536Z 05006KT 28/17 A3022 RMK A01 T02760169  RH  052%=      5-min Rain = 0
KVA1 141537Z 05006KT 28/16 A3022 RMK A01 T02780164  RH  050%=      5-min Rain = 0
KVA1 141538Z 05007KT 28/16 A3022 RMK A01 T02790155  RH  047%=      5-min Rain = 0
KVA1 141539Z 05006KT 28/16 A3022 RMK A01 T02780163  RH  050%=      5-min Rain = 0
KVA1 141540Z 04007KT 28/16 A3022 RMK A01 T02780162  RH  049%=      5-min Rain = 0
KVA1 141541Z 03006KT 28/16 A3022 RMK A01 T02780162  RH  049%=      5-min Rain = 0
KVA1 141542Z 04008KT 28/16 A3022 RMK A01 T02780158  RH  048%=      5-min Rain = 0
KVA1 141543Z 05007KT 28/17 A3022 RMK A01 T02780165  RH  050%=      5-min Rain = 0
KVA1 141544Z 05008KT 28/16 A3022 RMK A01 T02790163  RH  049%=      5-min Rain = 0
KVA1 141545Z 03006KT 28/16 A3022 RMK A01 T02800162  RH  049%=      5-min Rain = 0
KVA1 141546Z 03007KT 28/16 A3022 RMK A01 T02800162  RH  049%=      5-min Rain = 0
KVA1 141547Z 05009KT 28/16 A3023 RMK A01 T02800160  RH  048%=      5-min Rain = 0
KVA1 141548Z 05009KT 28/16 A3023 RMK A01 T02800155  RH  047%=      5-min Rain = 0
KVA1 141549Z 05008KT 28/15 A3023 RMK A01 T02790152  RH  046%=      5-min Rain = 0
KVA1 141550Z 05007KT 28/16 A3023 RMK A01 T02790158  RH  048%=      5-min Rain = 0
KVA1 141551Z 05008KT 28/16 A3023 RMK A01 T02800157  RH  047%=      5-min Rain = 0
KVA1 141552Z 04007KT 28/16 A3023 RMK A01 T02800156  RH  047%=      5-min Rain = 0
KVA1 141553Z 04009KT 28/16 A3023 RMK A01 T02800160  RH  048%=      5-min Rain = 0
KVA1 141554Z 03011KT 28/16 A3023 RMK A01 T02810159  RH  048%=      5-min Rain = 0
KVA1 141555Z 05010KT 28/16 A3023 RMK A01 T02810158  RH  047%=      5-min Rain = 0
KVA1 141556Z 05009KT 28/16 A3023 RMK A01 T02820158  RH  047%=      5-min Rain = 0
KVA1 141557Z 04010KT 28/16 A3023 RMK A01 T02820159  RH  047%=      5-min Rain = 0
KVA1 141558Z 03008KT 28/16 A3023 RMK A01 T02820155  RH  046%=      5-min Rain = 0
KVA1 141559Z 05008KT 28/16 A3023 RMK A01 T02810158  RH  047%=      5-min Rain = 0
KVA1 141600Z 04009KT 28/15 A3023 RMK A01 T02820153  RH  045%=      5-min Rain = 0
KVA1 141601Z 04009KT 28/15 A3023 RMK A01 T02830153  RH  045%=      5-min Rain = 0
KVA1 141602Z 04008KT 28/15 A3023 RMK A01 T02830154  RH  045%=      5-min Rain = 0
KVA1 141603Z 05009KT 28/15 A3023 RMK A01 T02830150  RH  044%=      5-min Rain = 0
KVA1 141604Z 07008KT 28/15 A3023 RMK A01 T02830151  RH  045%=      5-min Rain = 0
KVA1 141605Z 06008KT 28/15 A3023 RMK A01 T02840153  RH  045%=      5-min Rain = 0
KVA1 141606Z 06009KT 29/15 A3023 RMK A01 T02850151  RH  044%=      5-min Rain = 0
KVA1 141607Z 06010KT 29/15 A3023 RMK A01 T02850154  RH  045%=      5-min Rain = 0
KVA1 141608Z 07009KT 29/16 A3023 RMK A01 T02850156  RH  045%=      5-min Rain = 0
KVA1 141609Z 06009KT 29/16 A3023 RMK A01 T02860157  RH  046%=      5-min Rain = 0
KVA1 141610Z 06011KT 29/16 A3023 RMK A01 T02860156  RH  045%=      5-min Rain = 0
KVA1 141611Z 05009KT 29/15 A3023 RMK A01 T02860154  RH  045%=      5-min Rain = 0
KVA1 141612Z 06007KT 28/15 A3023 RMK A01 T02840151  RH  044%=      5-min Rain = 0
KVA1 141613Z 05006KT 28/16 A3023 RMK A01 T02840159  RH  047%=      5-min Rain = 0
KVA1 141614Z 06008KT 29/16 A3023 RMK A01 T02850156  RH  045%=      5-min Rain = 0
KVA1 141615Z 06008KT 29/15 A3023 RMK A01 T02850154  RH  045%=      5-min Rain = 0
KVA1 141616Z 06008KT 29/16 A3023 RMK A01 T02850157  RH  046%=      5-min Rain = 0
KVA1 141617Z 06011KT 29/15 A3023 RMK A01 T02860154  RH  045%=      5-min Rain = 0
KVA1 141618Z 05011KT 29/15 A3023 RMK A01 T02860154  RH  045%=      5-min Rain = 0
KVA1 141619Z 04011KT 29/15 A3023 RMK A01 T02860153  RH  044%=      5-min Rain = 0
KVA1 141620Z 05009KT 29/15 A3023 RMK A01 T02870154  RH  044%=      5-min Rain = 0
KVA1 141621Z 04009KT 29/15 A3023 RMK A01 T02870152  RH  044%=      5-min Rain = 0
KVA1 141622Z 05009KT 29/15 A3023 RMK A01 T02870153  RH  044%=      5-min Rain = 0
KVA1 141623Z 05010KT 29/15 A3023 RMK A01 T02870153  RH  044%=      5-min Rain = 0
KVA1 141624Z 06007KT 29/16 A3023 RMK A01 T02880155  RH  044%=      5-min Rain = 0
KVA1 141625Z 05009KT 29/15 A3023 RMK A01 T02900154  RH  044%=      5-min Rain = 0
KVA1 141626Z 04009KT 29/16 A3023 RMK A01 T02900158  RH  045%=      5-min Rain = 0
KVA1 141627Z 05009KT 29/16 A3023 RMK A01 T02920155  RH  043%=      5-min Rain = 0
KVA1 141628Z 04008KT 29/16 A3023 RMK A01 T02930156  RH  043%=      5-min Rain = 0
KVA1 141629Z 06008KT 29/16 A3023 RMK A01 T02940155  RH  043%=      5-min Rain = 0
KVA1 141630Z 06009KT 29/15 A3023 RMK A01 T02940153  RH  042%=      5-min Rain = 0
KVA1 141631Z 04010KT 29/15 A3023 RMK A01 T02940153  RH  042%=      5-min Rain = 0
KVA1 141632Z 05008KT 29/15 A3023 RMK A01 T02940154  RH  043%=      5-min Rain = 0
KVA1 141633Z 05006KT 29/16 A3023 RMK A01 T02940158  RH  044%=      5-min Rain = 0
KVA1 141634Z 05007KT 30/16 A3023 RMK A01 T02950159  RH  044%=      5-min Rain = 0
KVA1 141635Z 05007KT 30/16 A3023 RMK A01 T02970159  RH  043%=      5-min Rain = 0
KVA1 141636Z 03007KT 30/16 A3023 RMK A01 T02980162  RH  044%=      5-min Rain = 0
KVA1 141637Z 03008KT 30/16 A3023 RMK A01 T02980159  RH  043%=      5-min Rain = 0
KVA1 141638Z 03009KT 30/16 A3023 RMK A01 T02970157  RH  043%=      5-min Rain = 0
KVA1 141639Z 02011KT 30/16 A3023 RMK A01 T02970156  RH  042%=      5-min Rain = 0
KVA1 141640Z 04010KT 30/15 A3023 RMK A01 T02970152  RH  041%=      5-min Rain = 0
KVA1 141641Z 04012KT 30/16 A3023 RMK A01 T02970155  RH  042%=      5-min Rain = 0
KVA1 141642Z 05009KT 30/15 A3023 RMK A01 T02980150  RH  041%=      5-min Rain = 0
KVA1 141643Z 05007KT 30/15 A3023 RMK A01 T02970154  RH  042%=      5-min Rain = 0
KVA1 141644Z 06008KT 30/15 A3023 RMK A01 T02980154  RH  042%=      5-min Rain = 0
KVA1 141645Z 06009KT 30/15 A3023 RMK A01 T02980149  RH  040%=      5-min Rain = 0
KVA1 141646Z 04009KT 30/15 A3023 RMK A01 T02960151  RH  041%=      5-min Rain = 0
KVA1 141647Z 04011KT 30/15 A3023 RMK A01 T02960152  RH  041%=      5-min Rain = 0
KVA1 141648Z 03008KT 30/15 A3023 RMK A01 T02960150  RH  041%=      5-min Rain = 0
KVA1 141649Z 05007KT 30/15 A3023 RMK A01 T02960151  RH  041%=      5-min Rain = 0
KVA1 141650Z 04007KT 30/15 A3023 RMK A01 T02970152  RH  041%=      5-min Rain = 0
KVA1 141651Z 03009KT 30/15 A3023 RMK A01 T02980154  RH  042%=      5-min Rain = 0
KVA1 141652Z 04010KT 30/15 A3023 RMK A01 T02990153  RH  041%=      5-min Rain = 0
KVA1 141653Z 03009KT 30/15 A3023 RMK A01 T03000154  RH  041%=      5-min Rain = 0
KVA1 141654Z 02007KT 30/15 A3023 RMK A01 T03000150  RH  040%=      5-min Rain = 0
KVA1 141655Z 02006KT 30/16 A3023 RMK A01 T03000155  RH  041%=      5-min Rain = 0
KVA1 141656Z 04006KT 30/15 A3023 RMK A01 T03000151  RH  041%=      5-min Rain = 0
KVA1 141657Z 05007KT 30/16 A3023 RMK A01 T03000155  RH  041%=      5-min Rain = 0
KVA1 141658Z 05008KT 30/15 A3023 RMK A01 T03020152  RH  040%=      5-min Rain = 0
KVA1 141659Z 03008KT 30/16 A3023 RMK A01 T03030161  RH  042%=      5-min Rain = 0
KVA1 141700Z 04009KT 31/15 A3023 RMK A01 T03060152  RH  039%=      5-min Rain = 0
KVA1 141701Z 04007KT 31/15 A3023 RMK A01 T03060148  RH  038%=      5-min Rain = 0
KVA1 141702Z 05012KT 31/15 A3023 RMK A01 T03050150  RH  039%=      5-min Rain = 0
KVA1 141703Z 05013KT 31/15 A3023 RMK A01 T03050147  RH  038%=      5-min Rain = 0
KVA1 141704Z 05013KT 31/14 A3023 RMK A01 T03050144  RH  037%=      5-min Rain = 0
KVA1 141705Z 04011KT 31/14 A3023 RMK A01 T03050144  RH  037%=      5-min Rain = 0
KVA1 141706Z 05010KT 31/15 A3023 RMK A01 T03050147  RH  038%=      5-min Rain = 0
KVA1 141707Z 05012KT 31/15 A3023 RMK A01 T03050147  RH  038%=      5-min Rain = 0
KVA1 141708Z 05011KT 31/15 A3023 RMK A01 T03060146  RH  038%=      5-min Rain = 0
KVA1 141709Z 05008G13KT 31/15 A3023 RMK A01 T03070149  RH  038%=      5-min Rain = 0
KVA1 141710Z 04010KT 31/15 A3023 RMK A01 T03090150  RH  038%=      5-min Rain = 0
KVA1 141711Z 04010KT 31/15 A3023 RMK A01 T03100146  RH  037%=      5-min Rain = 0
KVA1 141712Z 04010KT 31/15 A3023 RMK A01 T03090148  RH  038%=      5-min Rain = 0
KVA1 141713Z 05009KT 31/15 A3023 RMK A01 T03090146  RH  037%=      5-min Rain = 0
KVA1 141714Z 04008KT 31/15 A3023 RMK A01 T03080146  RH  037%=      5-min Rain = 0
KVA1 141715Z 03010KT 31/15 A3023 RMK A01 T03090152  RH  039%=      5-min Rain = 0
KVA1 141716Z 06012KT 31/15 A3023 RMK A01 T03110149  RH  037%=      5-min Rain = 0
KVA1 141717Z 05008KT 31/14 A3023 RMK A01 T03110144  RH  036%=      5-min Rain = 0
KVA1 141718Z 07007KT 31/15 A3023 RMK A01 T03090149  RH  038%=      5-min Rain = 0
KVA1 141719Z 08007KT 31/15 A3023 RMK A01 T03100148  RH  037%=      5-min Rain = 0
KVA1 141720Z 09007KT 31/15 A3023 RMK A01 T03100148  RH  037%=      5-min Rain = 0
KVA1 141721Z 08008KT 31/15 A3023 RMK A01 T03100147  RH  037%=      5-min Rain = 0
KVA1 141722Z 07010KT 31/15 A3023 RMK A01 T03100146  RH  037%=      5-min Rain = 0
KVA1 141723Z 05012KT 31/15 A3023 RMK A01 T03100149  RH  038%=      5-min Rain = 0
KVA1 141724Z 04012KT 31/15 A3023 RMK A01 T03120150  RH  038%=      5-min Rain = 0
KVA1 141725Z 02010KT 31/15 A3023 RMK A01 T03140150  RH  037%=      5-min Rain = 0
KVA1 141726Z 04012KT 31/15 A3023 RMK A01 T03140150  RH  037%=      5-min Rain = 0
KVA1 141727Z 03013KT 31/15 A3023 RMK A01 T03130149  RH  037%=      5-min Rain = 0
KVA1 141728Z 03010KT 31/15 A3023 RMK A01 T03120150  RH  037%=      5-min Rain = 0
KVA1 141729Z 03013KT 31/15 A3023 RMK A01 T03130150  RH  037%=      5-min Rain = 0
KVA1 141730Z 03011KT 31/15 A3023 RMK A01 T03130153  RH  038%=      5-min Rain = 0
KVA1 141731Z 04011KT 31/15 A3023 RMK A01 T03140150  RH  037%=      5-min Rain = 0
KVA1 141732Z 05012KT 31/15 A3023 RMK A01 T03140149  RH  037%=      5-min Rain = 0
KVA1 141733Z 03012KT 31/15 A3023 RMK A01 T03140149  RH  037%=      5-min Rain = 0
KVA1 141734Z 03011KT 31/15 A3023 RMK A01 T03140148  RH  037%=      5-min Rain = 0
KVA1 141735Z 02009KT 31/15 A3023 RMK A01 T03120151  RH  038%=      5-min Rain = 0
KVA1 141736Z 04011KT 31/15 A3023 RMK A01 T03130152  RH  038%=      5-min Rain = 0
KVA1 141737Z 04013KT 32/15 A3023 RMK A01 T03150149  RH  037%=      5-min Rain = 0
KVA1 141738Z 04012G18KT 31/15 A3023 RMK A01 T03140148  RH  037%=      5-min Rain = 0
KVA1 141739Z 05014KT 31/15 A3023 RMK A01 T03130146  RH  036%=      5-min Rain = 0
KVA1 141740Z 04014KT 31/15 A3023 RMK A01 T03100146  RH  037%=      5-min Rain = 0
KVA1 141741Z 04011KT 31/15 A3023 RMK A01 T03090148  RH  038%=      5-min Rain = 0
KVA1 141742Z 03009KT 31/15 A3023 RMK A01 T03110149  RH  037%=      5-min Rain = 0
KVA1 141743Z 02010KT 31/15 A3023 RMK A01 T03120150  RH  037%=      5-min Rain = 0
KVA1 141744Z 02013KT 31/15 A3023 RMK A01 T03130148  RH  037%=      5-min Rain = 0
KVA1 141745Z 03012KT 31/15 A3023 RMK A01 T03130147  RH  036%=      5-min Rain = 0
KVA1 141746Z 04013KT 32/15 A3023 RMK A01 T03150150  RH  037%=      5-min Rain = 0
KVA1 141747Z 04010KT 32/15 A3023 RMK A01 T03150148  RH  036%=      5-min Rain = 0
KVA1 141748Z 04010KT 31/15 A3023 RMK A01 T03130148  RH  037%=      5-min Rain = 0
KVA1 141749Z 02010KT 31/15 A3023 RMK A01 T03120150  RH  038%=      5-min Rain = 0
KVA1 141750Z 01009KT 31/15 A3023 RMK A01 T03110149  RH  037%=      5-min Rain = 0
KVA1 141751Z 01010KT 31/15 A3023 RMK A01 T03120153  RH  038%=      5-min Rain = 0
KVA1 141752Z 04010KT 31/16 A3023 RMK A01 T03140157  RH  039%=      5-min Rain = 0
KVA1 141753Z 03010KT 32/15 A3023 RMK A01 T03180153  RH  037%=      5-min Rain = 0
KVA1 141754Z 05012KT 32/15 A3023 RMK A01 T03170150  RH  036%=      5-min Rain = 0
KVA1 141755Z 04012KT 31/15 A3023 RMK A01 T03140151  RH  037%=      5-min Rain = 0
KVA1 141756Z 03012KT 31/15 A3023 RMK A01 T03140152  RH  038%=      5-min Rain = 0
KVA1 141757Z 05011KT 31/15 A3023 RMK A01 T03130152  RH  038%=      5-min Rain = 0
KVA1 141758Z 06009KT 31/15 A3023 RMK A01 T03130152  RH  038%=      5-min Rain = 0
KVA1 141759Z 04010KT 31/15 A3023 RMK A01 T03130154  RH  038%=      5-min Rain = 0
KVA1 141800Z 04009KT 31/15 A3023 RMK A01 T03140151  RH  037%=      5-min Rain = 0
KVA1 141801Z 03010KT 31/15 A3023 RMK A01 T03130152  RH  038%=      5-min Rain = 0
KVA1 141802Z 03007KT 31/15 A3023 RMK A01 T03130150  RH  037%=      5-min Rain = 0
KVA1 141803Z 04008KT 31/15 A3023 RMK A01 T03120152  RH  038%=      5-min Rain = 0
KVA1 141804Z 06013KT 31/15 A3023 RMK A01 T03110150  RH  038%=      5-min Rain = 0
KVA1 141805Z 03012G17KT 31/15 A3022 RMK A01 T03100151  RH  038%=      5-min Rain = 0
KVA1 141806Z 03012G17KT 31/15 A3023 RMK A01 T03110153  RH  038%=      5-min Rain = 0
KVA1 141807Z 02011KT 31/15 A3022 RMK A01 T03120152  RH  038%=      5-min Rain = 0
KVA1 141808Z 02013G18KT 31/16 A3022 RMK A01 T03110155  RH  039%=      5-min Rain = 0
KVA1 141809Z 02012KT 31/16 A3022 RMK A01 T03140155  RH  038%=      5-min Rain = 0
KVA1 141810Z 03012KT 32/16 A3022 RMK A01 T03160156  RH  038%=      5-min Rain = 0
KVA1 141811Z 04012G17KT 32/16 A3022 RMK A01 T03170155  RH  038%=      5-min Rain = 0
KVA1 141812Z 03013KT 32/16 A3022 RMK A01 T03170155  RH  038%=      5-min Rain = 0
KVA1 141813Z 02011KT 32/16 A3022 RMK A01 T03170155  RH  038%=      5-min Rain = 0
KVA1 141814Z 02009KT 32/15 A3022 RMK A01 T03150154  RH  038%=      5-min Rain = 0
KVA1 141815Z 02009KT 32/15 A3022 RMK A01 T03150154  RH  038%=      5-min Rain = 0
KVA1 141816Z 04010KT 31/16 A3022 RMK A01 T03140156  RH  039%=      5-min Rain = 0
KVA1 141817Z 05012KT 32/16 A3022 RMK A01 T03150156  RH  038%=      5-min Rain = 0
KVA1 141818Z 06011KT 31/15 A3022 RMK A01 T03140154  RH  038%=      5-min Rain = 0
KVA1 141819Z 05010KT 31/16 A3022 RMK A01 T03140157  RH  039%=      5-min Rain = 0
KVA1 141820Z 05009KT 31/16 A3022 RMK A01 T03140158  RH  039%=      5-min Rain = 0
KVA1 141821Z 05011KT 32/16 A3022 RMK A01 T03150156  RH  038%=      5-min Rain = 0
KVA1 141822Z 02010KT 32/16 A3022 RMK A01 T03170160  RH  039%=      5-min Rain = 0
KVA1 141823Z 01010KT 32/16 A3022 RMK A01 T03180156  RH  038%=      5-min Rain = 0
KVA1 141824Z 05011KT 32/16 A3022 RMK A01 T03180160  RH  039%=      5-min Rain = 0
KVA1 141825Z 06011KT 32/16 A3022 RMK A01 T03200162  RH  039%=      5-min Rain = 0
KVA1 141826Z 04011KT 32/16 A3022 RMK A01 T03210160  RH  038%=      5-min Rain = 0
KVA1 141827Z 03012KT 32/16 A3022 RMK A01 T03180159  RH  038%=      5-min Rain = 0
KVA1 141828Z 03012G17KT 32/16 A3022 RMK A01 T03150161  RH  039%=      5-min Rain = 0
KVA1 141829Z 04014KT 32/16 A3022 RMK A01 T03150161  RH  039%=      5-min Rain = 0
KVA1 141830Z 04013KT 32/16 A3022 RMK A01 T03170158  RH  038%=      5-min Rain = 0
KVA1 141831Z 05011KT 32/16 A3022 RMK A01 T03160158  RH  038%=      5-min Rain = 0
KVA1 141832Z 04013G18KT 32/16 A3022 RMK A01 T03160162  RH  040%=      5-min Rain = 0
KVA1 141833Z 04011KT 32/16 A3022 RMK A01 T03180160  RH  039%=      5-min Rain = 0
KVA1 141834Z 02011KT 32/16 A3022 RMK A01 T03200163  RH  039%=      5-min Rain = 0
KVA1 141835Z 03010KT 32/16 A3022 RMK A01 T03220161  RH  038%=      5-min Rain = 0
KVA1 141836Z 02009KT 32/16 A3022 RMK A01 T03220161  RH  038%=      5-min Rain = 0
KVA1 141837Z 03007KT 32/16 A3022 RMK A01 T03220163  RH  038%=      5-min Rain = 0
KVA1 141838Z 05009G14KT 32/16 A3022 RMK A01 T03210159  RH  038%=      5-min Rain = 0
KVA1 141839Z 05010KT 32/16 A3022 RMK A01 T03180160  RH  039%=      5-min Rain = 0
KVA1 141840Z 03011KT 32/16 A3022 RMK A01 T03180158  RH  038%=      5-min Rain = 0
KVA1 141841Z 05010KT 32/16 A3022 RMK A01 T03180158  RH  038%=      5-min Rain = 0
KVA1 141842Z 06008KT 32/16 A3022 RMK A01 T03170157  RH  038%=      5-min Rain = 0
KVA1 141843Z 05007KT 32/16 A3022 RMK A01 T03160155  RH  038%=      5-min Rain = 0
KVA1 141844Z 01011G18KT 32/16 A3022 RMK A01 T03150157  RH  039%=      5-min Rain = 0
KVA1 141845Z 01012KT 32/16 A3022 RMK A01 T03150156  RH  038%=      5-min Rain = 0
KVA1 141846Z 04009G16KT 31/16 A3022 RMK A01 T03140156  RH  038%=      5-min Rain = 0
KVA1 141847Z 04014G19KT 32/16 A3022 RMK A01 T03150158  RH  039%=      5-min Rain = 0
KVA1 141848Z 05012G20KT 32/16 A3022 RMK A01 T03180157  RH  038%=      5-min Rain = 0
KVA1 141849Z 05011G16KT 32/16 A3022 RMK A01 T03180157  RH  038%=      5-min Rain = 0
KVA1 141850Z 05015KT 32/16 A3022 RMK A01 T03190157  RH  038%=      5-min Rain = 0
KVA1 141851Z 03010KT 32/16 A3022 RMK A01 T03180155  RH  037%=      5-min Rain = 0
KVA1 141852Z 03011KT 32/16 A3022 RMK A01 T03170158  RH  038%=      5-min Rain = 0
KVA1 141853Z 03012G17KT 32/16 A3022 RMK A01 T03190160  RH  038%=      5-min Rain = 0
KVA1 141854Z 03012KT 32/16 A3022 RMK A01 T03210159  RH  038%=      5-min Rain = 0
KVA1 141855Z 02010KT 32/16 A3022 RMK A01 T03210160  RH  038%=      5-min Rain = 0
KVA1 141856Z 02010KT 32/16 A3022 RMK A01 T03210157  RH  037%=      5-min Rain = 0
KVA1 141857Z 01009KT 32/16 A3022 RMK A01 T03200161  RH  038%=      5-min Rain = 0
KVA1 141858Z 00011KT 32/16 A3022 RMK A01 T03190159  RH  038%=      5-min Rain = 0
KVA1 141859Z 02012KT 32/16 A3021 RMK A01 T03180160  RH  039%=      5-min Rain = 0
KVA1 141900Z 02013KT 32/16 A3021 RMK A01 T03170158  RH  038%=      5-min Rain = 0
KVA1 141901Z 03013KT 32/16 A3021 RMK A01 T03180161  RH  039%=      5-min Rain = 0
KVA1 141902Z 02016KT 32/16 A3021 RMK A01 T03210159  RH  038%=      5-min Rain = 0
KVA1 141903Z 02013KT 32/16 A3021 RMK A01 T03220158  RH  037%=      5-min Rain = 0
KVA1 141904Z 03012KT 32/16 A3021 RMK A01 T03190156  RH  037%=      5-min Rain = 0
KVA1 141905Z 04008G15KT 32/16 A3021 RMK A01 T03170157  RH  038%=      5-min Rain = 0
KVA1 141906Z 03013KT 32/16 A3021 RMK A01 T03180159  RH  038%=      5-min Rain = 0
KVA1 141907Z 03013KT 32/16 A3021 RMK A01 T03190157  RH  038%=      5-min Rain = 0
KVA1 141908Z 03011KT 32/16 A3021 RMK A01 T03190158  RH  038%=      5-min Rain = 0
KVA1 141909Z 04015KT 32/16 A3021 RMK A01 T03210158  RH  038%=      5-min Rain = 0
KVA1 141910Z 06015KT 32/16 A3021 RMK A01 T03230158  RH  037%=      5-min Rain = 0
KVA1 141911Z 05013KT 32/16 A3021 RMK A01 T03240156  RH  036%=      5-min Rain = 0
KVA1 141912Z 03012KT 33/15 A3021 RMK A01 T03250153  RH  036%=      5-min Rain = 0
KVA1 141913Z 04012KT 32/15 A3021 RMK A01 T03220154  RH  036%=      5-min Rain = 0
KVA1 141914Z 05011KT 32/16 A3021 RMK A01 T03230157  RH  037%=      5-min Rain = 0
KVA1 141915Z 05012KT 32/15 A3021 RMK A01 T03240153  RH  036%=      5-min Rain = 0
KVA1 141916Z 04009KT 32/16 A3021 RMK A01 T03240155  RH  036%=      5-min Rain = 0
KVA1 141917Z 06009KT 32/15 A3021 RMK A01 T03230152  RH  036%=      5-min Rain = 0
KVA1 141918Z 05011KT 32/15 A3021 RMK A01 T03210154  RH  036%=      5-min Rain = 0
KVA1 141919Z 04011KT 32/15 A3021 RMK A01 T03210152  RH  036%=      5-min Rain = 0
KVA1 141920Z 05012G17KT 32/15 A302 RMK A01 T03210153  RH  036%=      5-min Rain = 0
KVA1 141921Z 05011G18KT 32/15 A302 RMK A01 T03210154  RH  036%=      5-min Rain = 0
KVA1 141922Z 05010G15KT 32/16 A302 RMK A01 T03220155  RH  037%=      5-min Rain = 0
KVA1 141923Z 05015KT 33/16 A302 RMK A01 T03250155  RH  036%=      5-min Rain = 0
KVA1 141924Z 05014KT 33/15 A302 RMK A01 T03260153  RH  035%=      5-min Rain = 0
KVA1 141925Z 06013KT 33/15 A302 RMK A01 T03250154  RH  036%=      5-min Rain = 0
KVA1 141926Z 06011KT 32/15 A302 RMK A01 T03230154  RH  036%=      5-min Rain = 0
KVA1 141927Z 06011KT 32/15 A302 RMK A01 T03230153  RH  036%=      5-min Rain = 0
KVA1 141928Z 06011KT 32/15 A302 RMK A01 T03230153  RH  036%=      5-min Rain = 0
KVA1 141929Z 06010KT 33/15 A302 RMK A01 T03250151  RH  035%=      5-min Rain = 0
KVA1 141930Z 09006KT 32/15 A302 RMK A01 T03230151  RH  035%=      5-min Rain = 0
KVA1 141931Z 09006KT 32/15 A302 RMK A01 T03210149  RH  035%=      5-min Rain = 0
KVA1 141932Z 07008KT 32/15 A302 RMK A01 T03190151  RH  036%=      5-min Rain = 0
KVA1 141933Z 04009G14KT 32/15 A302 RMK A01 T03190149  RH  036%=      5-min Rain = 0
KVA1 141934Z 04009KT 32/16 A302 RMK A01 T03200155  RH  037%=      5-min Rain = 0
KVA1 141935Z 05010KT 33/16 A302 RMK A01 T03250155  RH  036%=      5-min Rain = 0
KVA1 141936Z 07009G14KT 33/16 A302 RMK A01 T03270156  RH  036%=      5-min Rain = 0
KVA1 141937Z 06013KT 33/15 A302 RMK A01 T03290152  RH  034%=      5-min Rain = 0
KVA1 141938Z 05012KT 33/15 A302 RMK A01 T03270151  RH  035%=      5-min Rain = 0
KVA1 141939Z 05009KT 33/15 A302 RMK A01 T03260153  RH  035%=      5-min Rain = 0
KVA1 141940Z 06011KT 33/15 A302 RMK A01 T03270154  RH  035%=      5-min Rain = 0
KVA1 141941Z 06009KT 33/15 A302 RMK A01 T03270153  RH  035%=      5-min Rain = 0
KVA1 141942Z 07009KT 32/15 A302 RMK A01 T03240152  RH  036%=      5-min Rain = 0
KVA1 141943Z 05008KT 32/15 A3019 RMK A01 T03230153  RH  036%=      5-min Rain = 0
KVA1 141944Z 05010KT 32/15 A3019 RMK A01 T03220152  RH  036%=      5-min Rain = 0
KVA1 141945Z 05007KT 32/15 A3019 RMK A01 T03220153  RH  036%=      5-min Rain = 0
KVA1 141946Z 06009G14KT 32/16 A3019 RMK A01 T03230155  RH  036%=      5-min Rain = 0
KVA1 141947Z 06013KT 33/16 A3019 RMK A01 T03260155  RH  036%=      5-min Rain = 0
KVA1 141948Z 04011KT 33/15 A3019 RMK A01 T03250154  RH  036%=      5-min Rain = 0
KVA1 141949Z 04013KT 33/16 A3019 RMK A01 T03270156  RH  036%=      5-min Rain = 0
KVA1 141950Z 05014KT 33/16 A3019 RMK A01 T03310156  RH  035%=      5-min Rain = 0
KVA1 141951Z 05011KT 33/16 A3019 RMK A01 T03300157  RH  035%=      5-min Rain = 0
KVA1 141952Z 07012KT 33/16 A3019 RMK A01 T03290157  RH  036%=      5-min Rain = 0
KVA1 141953Z 06011KT 33/15 A3019 RMK A01 T03280153  RH  035%=      5-min Rain = 0
KVA1 141954Z 08013KT 33/15 A3019 RMK A01 T03280154  RH  035%=      5-min Rain = 0
KVA1 141955Z 09009KT 33/15 A3019 RMK A01 T03270150  RH  034%=      5-min Rain = 0
KVA1 141956Z 07007KT 33/15 A3019 RMK A01 T03270149  RH  034%=      5-min Rain = 0
KVA1 141957Z 07008KT 33/15 A3019 RMK A01 T03250152  RH  035%=      5-min Rain = 0
KVA1 141958Z 05006KT 33/15 A3019 RMK A01 T03250153  RH  036%=      5-min Rain = 0
KVA1 141959Z 05012KT 33/16 A3019 RMK A01 T03280156  RH  036%=      5-min Rain = 0
KVA1 142000Z 07014KT 33/15 A3019 RMK A01 T03320154  RH  034%=      5-min Rain = 0
KVA1 142001Z 07012KT 33/15 A3019 RMK A01 T03320153  RH  034%=      5-min Rain = 0
KVA1 142002Z 07012G17KT 33/15 A3018 RMK A01 T03300152  RH  034%=      5-min Rain = 0
KVA1 142003Z 06013KT 33/15 A3018 RMK A01 T03280152  RH  035%=      5-min Rain = 0
KVA1 142004Z 06011KT 33/15 A3018 RMK A01 T03270153  RH  035%=      5-min Rain = 0
KVA1 142005Z 06011KT 33/16 A3018 RMK A01 T03280156  RH  036%=      5-min Rain = 0
KVA1 142006Z 06009KT 33/15 A3018 RMK A01 T03290154  RH  035%=      5-min Rain = 0
KVA1 142007Z 07005KT 33/16 A3018 RMK A01 T03280155  RH  035%=      5-min Rain = 0
KVA1 142008Z 06008KT 33/15 A3018 RMK A01 T03280154  RH  035%=      5-min Rain = 0
KVA1 142009Z 07008KT 33/15 A3018 RMK A01 T03280154  RH  035%=      5-min Rain = 0
KVA1 142010Z 07009KT 33/15 A3018 RMK A01 T03290154  RH  035%=      5-min Rain = 0
KVA1 142011Z 06015G20KT 33/16 A3018 RMK A01 T03290156  RH  035%=      5-min Rain = 0
KVA1 142012Z 06014KT 33/16 A3018 RMK A01 T03310155  RH  035%=      5-min Rain = 0
KVA1 142013Z 06011KT 33/16 A3018 RMK A01 T03290155  RH  035%=      5-min Rain = 0
KVA1 142014Z 05007KT 33/16 A3017 RMK A01 T03280155  RH  035%=      5-min Rain = 0
KVA1 142015Z 06010KT 33/16 A3017 RMK A01 T03290155  RH  035%=      5-min Rain = 0
KVA1 142016Z 06010KT 33/16 A3017 RMK A01 T03290157  RH  036%=      5-min Rain = 0
KVA1 142017Z 05010KT 33/16 A3017 RMK A01 T03310159  RH  036%=      5-min Rain = 0
KVA1 142018Z 04011KT 33/16 A3017 RMK A01 T03310160  RH  036%=      5-min Rain = 0
KVA1 142019Z 06013G18KT 33/16 A3017 RMK A01 T03290161  RH  036%=      5-min Rain = 0
KVA1 142020Z 05014KT 33/16 A3017 RMK A01 T03270162  RH  037%=      5-min Rain = 0
KVA1 142021Z 05014KT 33/16 A3017 RMK A01 T03270163  RH  037%=      5-min Rain = 0
KVA1 142022Z 05013KT 33/16 A3017 RMK A01 T03250161  RH  037%=      5-min Rain = 0
KVA1 142023Z 05013KT 33/16 A3017 RMK A01 T03250162  RH  038%=      5-min Rain = 0
KVA1 142024Z 04012KT 33/16 A3017 RMK A01 T03260161  RH  037%=      5-min Rain = 0
KVA1 142025Z 03009KT 33/16 A3017 RMK A01 T03260163  RH  037%=      5-min Rain = 0
KVA1 142026Z 05010G15KT 33/16 A3017 RMK A01 T03270162  RH  037%=      5-min Rain = 0
KVA1 142027Z 05014G19KT 33/16 A3017 RMK A01 T03270163  RH  037%=      5-min Rain = 0
KVA1 142028Z 04009KT 33/16 A3017 RMK A01 T03270161  RH  037%=      5-min Rain = 0
KVA1 142029Z 03011KT 33/17 A3017 RMK A01 T03270165  RH  038%=      5-min Rain = 0
KVA1 142030Z 04011KT 33/16 A3016 RMK A01 T03290164  RH  037%=      5-min Rain = 0
KVA1 142031Z 04012G17KT 33/17 A3016 RMK A01 T03300166  RH  037%=      5-min Rain = 0
KVA1 142032Z 04015KT 33/17 A3017 RMK A01 T03310165  RH  037%=      5-min Rain = 0
KVA1 142033Z 05014KT 33/16 A3016 RMK A01 T03290164  RH  037%=      5-min Rain = 0
KVA1 142034Z 07012KT 33/17 A3017 RMK A01 T03270165  RH  038%=      5-min Rain = 0
KVA1 142035Z 07010KT 33/17 A3017 RMK A01 T03280165  RH  038%=      5-min Rain = 0
KVA1 142036Z 07010KT 33/16 A3017 RMK A01 T03300164  RH  037%=      5-min Rain = 0
KVA1 142037Z 07013KT 33/16 A3017 RMK A01 T03310162  RH  037%=      5-min Rain = 0
KVA1 142038Z 05012KT 33/17 A3017 RMK A01 T03300167  RH  038%=      5-min Rain = 0
KVA1 142039Z 04012KT 33/16 A3017 RMK A01 T03290164  RH  037%=      5-min Rain = 0
KVA1 142040Z 05011KT 33/16 A3016 RMK A01 T03260164  RH  038%=      5-min Rain = 0
KVA1 142041Z 04011KT 33/16 A3016 RMK A01 T03260164  RH  038%=      5-min Rain = 0
KVA1 142042Z 04012KT 33/16 A3016 RMK A01 T03280163  RH  037%=      5-min Rain = 0
KVA1 142043Z 03014KT 33/16 A3016 RMK A01 T03300163  RH  037%=      5-min Rain = 0
KVA1 142044Z 04013KT 33/16 A3016 RMK A01 T03310162  RH  036%=      5-min Rain = 0
KVA1 142045Z 04013KT 33/16 A3016 RMK A01 T03320162  RH  036%=      5-min Rain = 0
KVA1 142046Z 05012G17KT 33/16 A3016 RMK A01 T03320164  RH  037%=      5-min Rain = 0
KVA1 142047Z 05013KT 33/16 A3016 RMK A01 T03320164  RH  037%=      5-min Rain = 0
KVA1 142048Z 06011KT 33/17 A3016 RMK A01 T03310165  RH  037%=      5-min Rain = 0
KVA1 142049Z 07011KT 33/17 A3016 RMK A01 T03280165  RH  038%=      5-min Rain = 0
KVA1 142050Z 06014KT 33/17 A3016 RMK A01 T03250165  RH  038%=      5-min Rain = 0
KVA1 142051Z 06014G20KT 32/16 A3016 RMK A01 T03230164  RH  038%=      5-min Rain = 0
KVA1 142052Z 06012KT 32/16 A3016 RMK A01 T03220164  RH  039%=      5-min Rain = 0
KVA1 142053Z 06012KT 32/16 A3016 RMK A01 T03230164  RH  038%=      5-min Rain = 0
KVA1 142054Z 06010KT 32/16 A3016 RMK A01 T03230164  RH  039%=      5-min Rain = 0
KVA1 142055Z 06012KT 32/16 A3016 RMK A01 T03240161  RH  038%=      5-min Rain = 0
KVA1 142056Z 06010KT 32/16 A3016 RMK A01 T03240161  RH  038%=      5-min Rain = 0
KVA1 142057Z 06011KT 33/16 A3016 RMK A01 T03260160  RH  037%=      5-min Rain = 0
KVA1 142058Z 05010G18KT 33/16 A3015 RMK A01 T03260161  RH  037%=      5-min Rain = 0
KVA1 142059Z 07014G19KT 33/16 A3015 RMK A01 T03290163  RH  037%=      5-min Rain = 0
KVA1 142100Z 05012KT 33/16 A3015 RMK A01 T03320161  RH  036%=      5-min Rain = 0
KVA1 142101Z 06010KT 33/16 A3015 RMK A01 T03310160  RH  036%=      5-min Rain = 0
KVA1 142102Z 07011KT 33/16 A3015 RMK A01 T03310161  RH  036%=      5-min Rain = 0
KVA1 142103Z 10011KT 33/16 A3015 RMK A01 T03330162  RH  036%=      5-min Rain = 0
KVA1 142104Z 10015KT 34/16 A3015 RMK A01 T03360160  RH  035%=      5-min Rain = 0
KVA1 142105Z 09015KT 34/16 A3015 RMK A01 T03350159  RH  035%=      5-min Rain = 0
KVA1 142106Z 09013G18KT 33/16 A3015 RMK A01 T03330159  RH  035%=      5-min Rain = 0
KVA1 142107Z 09011KT 33/16 A3015 RMK A01 T03280156  RH  036%=      5-min Rain = 0
KVA1 142108Z 07010KT 33/16 A3015 RMK A01 T03260158  RH  037%=      5-min Rain = 0
KVA1 142109Z 08008KT 33/16 A3015 RMK A01 T03290159  RH  036%=      5-min Rain = 0
KVA1 142110Z 07009KT 33/16 A3015 RMK A01 T03320158  RH  035%=      5-min Rain = 0
KVA1 142111Z 08009G14KT 33/16 A3015 RMK A01 T03340161  RH  036%=      5-min Rain = 0
KVA1 142112Z 07015KT 34/16 A3015 RMK A01 T03370158  RH  034%=      5-min Rain = 0
KVA1 142113Z 07009KT 34/16 A3015 RMK A01 T03350156  RH  034%=      5-min Rain = 0
KVA1 142114Z 08008KT 33/16 A3015 RMK A01 T03330159  RH  035%=      5-min Rain = 0
KVA1 142115Z 08009KT 34/16 A3015 RMK A01 T03370162  RH  035%=      5-min Rain = 0
KVA1 142116Z 09010KT 34/16 A3015 RMK A01 T03390162  RH  035%=      5-min Rain = 0
KVA1 142117Z 07012G17KT 34/16 A3015 RMK A01 T03400161  RH  035%=      5-min Rain = 0
KVA1 142118Z 08016KT 34/16 A3015 RMK A01 T03380160  RH  034%=      5-min Rain = 0
KVA1 142119Z 08014KT 33/17 A3015 RMK A01 T03340166  RH  037%=      5-min Rain = 0
KVA1 142120Z 08014G19KT 33/17 A3015 RMK A01 T03300172  RH  039%=      5-min Rain = 0
KVA1 142121Z 09016KT 33/17 A3015 RMK A01 T03270173  RH  040%=      5-min Rain = 0
KVA1 142122Z 09015KT 33/17 A3015 RMK A01 T03260172  RH  040%=      5-min Rain = 0
KVA1 142123Z 09016KT 32/17 A3015 RMK A01 T03240172  RH  040%=      5-min Rain = 0
KVA1 142124Z 10015KT 32/17 A3015 RMK A01 T03220169  RH  040%=      5-min Rain = 0
KVA1 142125Z 09015KT 32/17 A3015 RMK A01 T03230170  RH  040%=      5-min Rain = 0
KVA1 142126Z 08013G18KT 33/17 A3015 RMK A01 T03250173  RH  040%=      5-min Rain = 0
KVA1 142127Z 07012G17KT 33/18 A3015 RMK A01 T03290175  RH  040%=      5-min Rain = 0
KVA1 142128Z 08013KT 33/17 A3015 RMK A01 T03300174  RH  040%=      5-min Rain = 0
KVA1 142129Z 09013KT 33/18 A3015 RMK A01 T03290175  RH  040%=      5-min Rain = 0
KVA1 142130Z 10015G20KT 33/18 A3015 RMK A01 T03290175  RH  040%=      5-min Rain = 0
KVA1 142131Z 10016KT 33/18 A3015 RMK A01 T03290175  RH  040%=      5-min Rain = 0
KVA1 142132Z 10015KT 33/17 A3015 RMK A01 T03280174  RH  040%=      5-min Rain = 0
KVA1 142133Z 10014KT 33/17 A3015 RMK A01 T03270174  RH  040%=      5-min Rain = 0
KVA1 142134Z 10012KT 33/17 A3015 RMK A01 T03280174  RH  040%=      5-min Rain = 0
KVA1 142135Z 10012KT 33/17 A3015 RMK A01 T03290173  RH  039%=      5-min Rain = 0
KVA1 142136Z 08008KT 33/18 A3015 RMK A01 T03300175  RH  040%=      5-min Rain = 0
KVA1 142137Z 09014KT 33/17 A3015 RMK A01 T03310172  RH  039%=      5-min Rain = 0
KVA1 142138Z 09011KT 33/17 A3014 RMK A01 T03280171  RH  039%=      5-min Rain = 0
KVA1 142139Z 09011KT 33/17 A3014 RMK A01 T03270173  RH  040%=      5-min Rain = 0
KVA1 142140Z 09012KT 33/17 A3014 RMK A01 T03300174  RH  040%=      5-min Rain = 0
KVA1 142141Z 07014KT 33/17 A3014 RMK A01 T03320172  RH  039%=      5-min Rain = 0
KVA1 142142Z 06013KT 33/17 A3014 RMK A01 T03310173  RH  039%=      5-min Rain = 0
KVA1 142143Z 06012KT 33/17 A3014 RMK A01 T03300169  RH  038%=      5-min Rain = 0
KVA1 142144Z 03010KT 33/17 A3014 RMK A01 T03270168  RH  039%=      5-min Rain = 0
KVA1 142145Z 05010KT 33/17 A3014 RMK A01 T03250170  RH  040%=      5-min Rain = 0
KVA1 142146Z 06009KT 33/17 A3014 RMK A01 T03270169  RH  039%=      5-min Rain = 0
KVA1 142147Z 07007KT 33/17 A3014 RMK A01 T03280171  RH  039%=      5-min Rain = 0
KVA1 142148Z 10009KT 33/17 A3014 RMK A01 T03290170  RH  039%=      5-min Rain = 0
KVA1 142149Z 10010KT 33/17 A3014 RMK A01 T03310169  RH  038%=      5-min Rain = 0
KVA1 142150Z 10012KT 33/17 A3014 RMK A01 T03330168  RH  037%=      5-min Rain = 0
KVA1 142151Z 09014KT 33/17 A3014 RMK A01 T03310167  RH  037%=      5-min Rain = 0
KVA1 142152Z 08012KT 33/17 A3014 RMK A01 T03300167  RH  038%=      5-min Rain = 0
KVA1 142153Z 09011KT 33/17 A3014 RMK A01 T03290167  RH  038%=      5-min Rain = 0
KVA1 142154Z 09012KT 33/17 A3014 RMK A01 T03290167  RH  038%=      5-min Rain = 0
KVA1 142155Z 08013KT 33/17 A3014 RMK A01 T03290167  RH  038%=      5-min Rain = 0
KVA1 142156Z 07009KT 33/17 A3014 RMK A01 T03290167  RH  038%=      5-min Rain = 0
KVA1 142157Z 08010KT 33/17 A3014 RMK A01 T03290166  RH  038%=      5-min Rain = 0
KVA1 142158Z 08008KT 33/17 A3014 RMK A01 T03290166  RH  038%=      5-min Rain = 0
KVA1 142159Z 08010G15KT 33/17 A3014 RMK A01 T03280166  RH  038%=      5-min Rain = 0
KVA1 142200Z 09011KT 33/16 A3014 RMK A01 T03280164  RH  038%=      5-min Rain = 0
KVA1 142201Z 08009KT 33/16 A3014 RMK A01 T03280164  RH  038%=      5-min Rain = 0
KVA1 142202Z 07010KT 33/16 A3014 RMK A01 T03290164  RH  037%=      5-min Rain = 0
KVA1 142203Z 08010KT 33/17 A3014 RMK A01 T03290165  RH  038%=      5-min Rain = 0
KVA1 142204Z 08010G15KT 33/16 A3014 RMK A01 T03300164  RH  037%=      5-min Rain = 0
KVA1 142205Z 09008KT 33/17 A3014 RMK A01 T03290165  RH  037%=      5-min Rain = 0
KVA1 142206Z 10010KT 33/16 A3014 RMK A01 T03300164  RH  037%=      5-min Rain = 0
KVA1 142207Z 07008KT 33/16 A3013 RMK A01 T03310164  RH  037%=      5-min Rain = 0
KVA1 142208Z 08008G13KT 33/17 A3013 RMK A01 T03300165  RH  037%=      5-min Rain = 0
KVA1 142209Z 07010KT 33/16 A3013 RMK A01 T03320163  RH  036%=      5-min Rain = 0
KVA1 142210Z 06012KT 33/16 A3013 RMK A01 T03320163  RH  036%=      5-min Rain = 0
KVA1 142211Z 06011KT 33/16 A3013 RMK A01 T03310161  RH  036%=      5-min Rain = 0
KVA1 142212Z 09011KT 33/16 A3013 RMK A01 T03310159  RH  036%=      5-min Rain = 0
KVA1 142213Z 08008KT 33/16 A3013 RMK A01 T03290159  RH  036%=      5-min Rain = 0
KVA1 142214Z 07011KT 33/16 A3013 RMK A01 T03300158  RH  036%=      5-min Rain = 0
KVA1 142215Z 08011KT 33/16 A3013 RMK A01 T03300159  RH  036%=      5-min Rain = 0
KVA1 142216Z 07008KT 33/16 A3013 RMK A01 T03290158  RH  036%=      5-min Rain = 0
KVA1 142217Z 09009G15KT 33/16 A3013 RMK A01 T03290160  RH  036%=      5-min Rain = 0
KVA1 142218Z 09013KT 33/16 A3013 RMK A01 T03300157  RH  035%=      5-min Rain = 0
KVA1 142219Z 08010KT 33/16 A3013 RMK A01 T03320157  RH  035%=      5-min Rain = 0
KVA1 142220Z 09008KT 33/16 A3013 RMK A01 T03320158  RH  035%=      5-min Rain = 0
KVA1 142221Z 09008G14KT 33/16 A3013 RMK A01 T03340161  RH  035%=      5-min Rain = 0
KVA1 142222Z 09013KT 34/16 A3013 RMK A01 T03370159  RH  035%=      5-min Rain = 0
KVA1 142223Z 07010KT 33/16 A3013 RMK A01 T03330155  RH  034%=      5-min Rain = 0
KVA1 142224Z 08007KT 33/16 A3013 RMK A01 T03290155  RH  035%=      5-min Rain = 0
KVA1 142225Z 09013KT 33/16 A3013 RMK A01 T03280155  RH  036%=      5-min Rain = 0
KVA1 142226Z 08010KT 33/15 A3013 RMK A01 T03300153  RH  035%=      5-min Rain = 0
KVA1 142227Z 09007KT 33/15 A3013 RMK A01 T03310154  RH  034%=      5-min Rain = 0
KVA1 142228Z 10007KT 33/15 A3013 RMK A01 T03310154  RH  035%=      5-min Rain = 0
KVA1 142229Z 09006KT 33/15 A3013 RMK A01 T03300154  RH  035%=      5-min Rain = 0
KVA1 142230Z 08006KT 33/16 A3013 RMK A01 T03300156  RH  035%=      5-min Rain = 0
KVA1 142231Z 06011KT 33/15 A3013 RMK A01 T03310154  RH  035%=      5-min Rain = 0
KVA1 142232Z 07009KT 33/15 A3013 RMK A01 T03340152  RH  033%=      5-min Rain = 0
KVA1 142233Z 07008KT 34/15 A3013 RMK A01 T03350153  RH  034%=      5-min Rain = 0
KVA1 142234Z 07007KT 33/15 A3013 RMK A01 T03340154  RH  034%=      5-min Rain = 0
KVA1 142235Z 08008KT 33/15 A3013 RMK A01 T03330153  RH  034%=      5-min Rain = 0
KVA1 142236Z 09008KT 33/15 A3012 RMK A01 T03320152  RH  034%=      5-min Rain = 0
KVA1 142237Z 09008G13KT 33/15 A3012 RMK A01 T03330154  RH  034%=      5-min Rain = 0
KVA1 142238Z 06011KT 33/15 A3012 RMK A01 T03340153  RH  034%=      5-min Rain = 0
KVA1 142239Z 07008KT 33/15 A3012 RMK A01 T03340152  RH  034%=      5-min Rain = 0
KVA1 142240Z 07010KT 33/15 A3012 RMK A01 T03330152  RH  034%=      5-min Rain = 0
KVA1 142241Z 09010KT 33/15 A3012 RMK A01 T03340152  RH  034%=      5-min Rain = 0
KVA1 142242Z 10011KT 33/15 A3012 RMK A01 T03340152  RH  034%=      5-min Rain = 0
KVA1 142243Z 09010KT 33/15 A3012 RMK A01 T03340152  RH  034%=      5-min Rain = 0
KVA1 142244Z 09012KT 33/15 A3012 RMK A01 T03340152  RH  034%=      5-min Rain = 0
KVA1 142245Z 06011KT 34/15 A3012 RMK A01 T03350151  RH  033%=      5-min Rain = 0
KVA1 142246Z 08008KT 34/15 A3012 RMK A01 T03350150  RH  033%=      5-min Rain = 0
KVA1 142247Z 10008KT 33/15 A3012 RMK A01 T03330152  RH  034%=      5-min Rain = 0
KVA1 142248Z 10008KT 33/15 A3012 RMK A01 T03330147  RH  033%=      5-min Rain = 0
KVA1 142249Z 11007KT 33/15 A3012 RMK A01 T03330149  RH  033%=      5-min Rain = 0
KVA1 142250Z 08012KT 34/15 A3012 RMK A01 T03350149  RH  033%=      5-min Rain = 0
KVA1 142251Z 08013KT 34/15 A3012 RMK A01 T03350153  RH  033%=      5-min Rain = 0
KVA1 142252Z 08013KT 34/15 A3012 RMK A01 T03360153  RH  033%=      5-min Rain = 0
KVA1 142253Z 08012KT 33/15 A3012 RMK A01 T03340148  RH  033%=      5-min Rain = 0
KVA1 142254Z 07010KT 33/15 A3012 RMK A01 T03340147  RH  032%=      5-min Rain = 0
KVA1 142255Z 06010KT 33/15 A3012 RMK A01 T03340145  RH  032%=      5-min Rain = 0
KVA1 142256Z 06008KT 33/14 A3012 RMK A01 T03340143  RH  032%=      5-min Rain = 0
KVA1 142257Z 08011KT 33/15 A3012 RMK A01 T03330146  RH  032%=      5-min Rain = 0
KVA1 142258Z 09008KT 33/14 A3012 RMK A01 T03320144  RH  032%=      5-min Rain = 0
KVA1 142259Z 09010KT 34/15 A3012 RMK A01 T03350146  RH  032%=      5-min Rain = 0
KVA1 142300Z 11009KT 34/14 A3012 RMK A01 T03370143  RH  031%=      5-min Rain = 0
KVA1 142301Z 12012KT 34/14 A3012 RMK A01 T03380142  RH  031%=      5-min Rain = 0
KVA1 142302Z 11013KT 34/14 A3012 RMK A01 T03390141  RH  030%=      5-min Rain = 0
KVA1 142303Z 11012KT 34/14 A3012 RMK A01 T03380141  RH  031%=      5-min Rain = 0
KVA1 142304Z 12012KT 34/14 A3012 RMK A01 T03370141  RH  031%=      5-min Rain = 0
KVA1 142305Z 08011KT 34/14 A3012 RMK A01 T03360143  RH  031%=      5-min Rain = 0
KVA1 142306Z 09010KT 34/15 A3012 RMK A01 T03360147  RH  032%=      5-min Rain = 0
KVA1 142307Z 10011KT 34/15 A3012 RMK A01 T03350147  RH  032%=      5-min Rain = 0
KVA1 142308Z 11012KT 34/15 A3012 RMK A01 T03350146  RH  032%=      5-min Rain = 0
KVA1 142309Z 10011KT 33/15 A3012 RMK A01 T03340146  RH  032%=      5-min Rain = 0
KVA1 142310Z 09010KT 34/15 A3012 RMK A01 T03350147  RH  032%=      5-min Rain = 0
KVA1 142311Z 11009KT 34/15 A3012 RMK A01 T03360147  RH  032%=      5-min Rain = 0
KVA1 142312Z 09010KT 34/15 A3012 RMK A01 T03380147  RH  032%=      5-min Rain = 0
KVA1 142313Z 08008KT 34/15 A3012 RMK A01 T03390148  RH  032%=      5-min Rain = 0
KVA1 142314Z 10008KT 34/15 A3012 RMK A01 T03410149  RH  032%=      5-min Rain = 0
KVA1 142315Z 09010KT 34/15 A3012 RMK A01 T03420148  RH  031%=      5-min Rain = 0
KVA1 142316Z 11014KT 34/15 A3012 RMK A01 T03390147  RH  032%=      5-min Rain = 0
KVA1 142317Z 11010KT 34/15 A3012 RMK A01 T03360149  RH  032%=      5-min Rain = 0
KVA1 142318Z 10009KT 34/15 A3012 RMK A01 T03350151  RH  033%=      5-min Rain = 0
KVA1 142319Z 10009G15KT 34/15 A3011 RMK A01 T03360151  RH  033%=      5-min Rain = 0
KVA1 142320Z 11011KT 34/15 A3012 RMK A01 T03360153  RH  033%=      5-min Rain = 0
KVA1 142321Z 11013KT 34/15 A3012 RMK A01 T03350154  RH  034%=      5-min Rain = 0
KVA1 142322Z 10014KT 34/15 A3012 RMK A01 T03350154  RH  034%=      5-min Rain = 0
KVA1 142323Z 10016KT 33/16 A3012 RMK A01 T03340155  RH  034%=      5-min Rain = 0
KVA1 142324Z 11013KT 33/15 A3012 RMK A01 T03320154  RH  034%=      5-min Rain = 0
KVA1 142325Z 10014KT 33/15 A3012 RMK A01 T03300154  RH  035%=      5-min Rain = 0
KVA1 142326Z 10016KT 33/15 A3012 RMK A01 T03290153  RH  035%=      5-min Rain = 0
KVA1 142327Z 09013G18KT 33/15 A3012 RMK A01 T03300154  RH  035%=      5-min Rain = 0
KVA1 142328Z 10012G17KT 33/16 A3012 RMK A01 T03320155  RH  035%=      5-min Rain = 0
KVA1 142329Z 09012KT 33/15 A3012 RMK A01 T03330154  RH  034%=      5-min Rain = 0
KVA1 142330Z 09009KT 33/16 A3012 RMK A01 T03320155  RH  035%=      5-min Rain = 0
KVA1 142331Z 09014KT 33/16 A3012 RMK A01 T03320155  RH  035%=      5-min Rain = 0
KVA1 142332Z 11011KT 33/16 A3012 RMK A01 T03310155  RH  035%=      5-min Rain = 0
KVA1 142333Z 10013KT 33/16 A3012 RMK A01 T03310155  RH  035%=      5-min Rain = 0
KVA1 142334Z 10015KT 33/16 A3012 RMK A01 T03310155  RH  035%=      5-min Rain = 0
KVA1 142335Z 10012KT 33/15 A3012 RMK A01 T03300152  RH  034%=      5-min Rain = 0
KVA1 142336Z 10010KT 33/15 A3012 RMK A01 T03290153  RH  035%=      5-min Rain = 0
KVA1 142337Z 11013KT 33/15 A3012 RMK A01 T03280153  RH  035%=      5-min Rain = 0
KVA1 142338Z 10015KT 33/15 A3012 RMK A01 T03300152  RH  034%=      5-min Rain = 0
KVA1 142339Z 10013KT 33/15 A3012 RMK A01 T03300151  RH  034%=      5-min Rain = 0
KVA1 142340Z 11013KT 33/15 A3012 RMK A01 T03290151  RH  034%=      5-min Rain = 0
KVA1 142341Z 11011KT 33/15 A3012 RMK A01 T03290153  RH  035%=      5-min Rain = 0
KVA1 142342Z 10012KT 33/15 A3012 RMK A01 T03300151  RH  034%=      5-min Rain = 0
KVA1 142343Z 09010KT 33/15 A3012 RMK A01 T03300152  RH  034%=      5-min Rain = 0
KVA1 142344Z 09013KT 33/15 A3012 RMK A01 T03290152  RH  034%=      5-min Rain = 0
KVA1 142345Z 10011KT 33/15 A3012 RMK A01 T03290153  RH  035%=      5-min Rain = 0
KVA1 142346Z 11012KT 33/15 A3012 RMK A01 T03280152  RH  035%=      5-min Rain = 0
KVA1 142347Z 10010KT 33/15 A3012 RMK A01 T03280151  RH  034%=      5-min Rain = 0
KVA1 142348Z 11011KT 33/15 A3012 RMK A01 T03280150  RH  034%=      5-min Rain = 0
KVA1 142349Z 11010KT 33/15 A3012 RMK A01 T03280152  RH  035%=      5-min Rain = 0
KVA1 142350Z 11010G17KT 33/15 A3012 RMK A01 T03290153  RH  035%=      5-min Rain = 0
KVA1 142351Z 11015KT 33/15 A3012 RMK A01 T03290153  RH  035%=      5-min Rain = 0
KVA1 142352Z 11012KT 33/15 A3012 RMK A01 T03280151  RH  035%=      5-min Rain = 0
KVA1 142353Z 10009KT 33/15 A3012 RMK A01 T03270153  RH  035%=      5-min Rain = 0
KVA1 142354Z 10013KT 33/15 A3012 RMK A01 T03280153  RH  035%=      5-min Rain = 0
KVA1 142355Z 10009KT 33/16 A3012 RMK A01 T03290155  RH  035%=      5-min Rain = 0
KVA1 142356Z 10013KT 33/16 A3012 RMK A01 T03280155  RH  035%=      5-min Rain = 0
KVA1 142357Z 10013KT 33/15 A3012 RMK A01 T03280154  RH  035%=      5-min Rain = 0
KVA1 142358Z 11012KT 33/16 A3012 RMK A01 T03260155  RH  036%=      5-min Rain = 0
KVA1 142359Z 11014KT 33/15 A3012 RMK A01 T03260154  RH  035%=      5-min Rain = 0
KVA1 150000Z 11012KT 33/15 A3012 RMK A01 T03250153  RH  035%=      5-min Rain = 0
KVA1 150001Z 11014KT 33/15 A3012 RMK A01 T03250154  RH  036%=      5-min Rain = 0
KVA1 150002Z 11012KT 33/15 A3012 RMK A01 T03250154  RH  036%=      5-min Rain = 0
KVA1 150003Z 11012KT 33/15 A3012 RMK A01 T03250154  RH  036%=      5-min Rain = 0
KVA1 150004Z 12012KT 33/15 A3012 RMK A01 T03250154  RH  036%=      5-min Rain = 0
KVA1 150005Z 11011KT 33/15 A3012 RMK A01 T03250153  RH  036%=      5-min Rain = 0
KVA1 150006Z 11014KT 33/15 A3012 RMK A01 T03270153  RH  035%=      5-min Rain = 0
KVA1 150007Z 10012KT 33/15 A3012 RMK A01 T03260152  RH  035%=      5-min Rain = 0
KVA1 150008Z 11008KT 33/15 A3012 RMK A01 T03250153  RH  036%=      5-min Rain = 0
KVA1 150009Z 10011KT 33/15 A3012 RMK A01 T03250153  RH  035%=      5-min Rain = 0
KVA1 150010Z 11013KT 33/15 A3012 RMK A01 T03250152  RH  035%=      5-min Rain = 0
KVA1 150011Z 10013KT 33/15 A3012 RMK A01 T03250149  RH  035%=      5-min Rain = 0
KVA1 150012Z 11012KT 32/15 A3012 RMK A01 T03240147  RH  034%=      5-min Rain = 0
KVA1 150013Z 10012KT 32/15 A3012 RMK A01 T03230149  RH  035%=      5-min Rain = 0
KVA1 150014Z 10013KT 32/15 A3012 RMK A01 T03230149  RH  035%=      5-min Rain = 0
KVA1 150015Z 10012KT 32/15 A3012 RMK A01 T03220147  RH  035%=      5-min Rain = 0
KVA1 150016Z 10013KT 32/15 A3012 RMK A01 T03220148  RH  035%=      5-min Rain = 0
KVA1 150017Z 10011G16KT 32/15 A3012 RMK A01 T03220149  RH  035%=      5-min Rain = 0
KVA1 150018Z 09012KT 32/15 A3012 RMK A01 T03220148  RH  035%=      5-min Rain = 0
KVA1 150019Z 09010KT 32/15 A3012 RMK A01 T03220148  RH  035%=      5-min Rain = 0
KVA1 150020Z 08012KT 32/15 A3011 RMK A01 T03220147  RH  035%=      5-min Rain = 0
KVA1 150021Z 09009KT 32/15 A3011 RMK A01 T03220149  RH  035%=      5-min Rain = 0
KVA1 150022Z 10012KT 32/15 A3011 RMK A01 T03210150  RH  036%=      5-min Rain = 0
KVA1 150023Z 10012KT 32/15 A3011 RMK A01 T03210148  RH  035%=      5-min Rain = 0
KVA1 150024Z 10012KT 32/15 A3011 RMK A01 T03210146  RH  035%=      5-min Rain = 0
KVA1 150025Z 11011KT 32/15 A3011 RMK A01 T03210145  RH  035%=      5-min Rain = 0
KVA1 150026Z 10011KT 32/15 A3011 RMK A01 T03200146  RH  035%=      5-min Rain = 0
KVA1 150027Z 10013KT 32/15 A3011 RMK A01 T03200147  RH  035%=      5-min Rain = 0
KVA1 150028Z 09013KT 32/15 A3011 RMK A01 T03200148  RH  035%=      5-min Rain = 0
KVA1 150029Z 10012KT 32/15 A3012 RMK A01 T03200149  RH  035%=      5-min Rain = 0
KVA1 150030Z 09011KT 32/15 A3012 RMK A01 T03200148  RH  035%=      5-min Rain = 0
KVA1 150031Z 10010KT 32/15 A3012 RMK A01 T03190149  RH  036%=      5-min Rain = 0
KVA1 150032Z 09008KT 32/15 A3012 RMK A01 T03190149  RH  036%=      5-min Rain = 0
KVA1 150033Z 09011KT 32/15 A3012 RMK A01 T03200151  RH  036%=      5-min Rain = 0
KVA1 150034Z 10009KT 32/15 A3012 RMK A01 T03200147  RH  035%=      5-min Rain = 0
KVA1 150035Z 09011KT 32/15 A3012 RMK A01 T03210148  RH  035%=      5-min Rain = 0
KVA1 150036Z 09011KT 32/15 A3012 RMK A01 T03200148  RH  035%=      5-min Rain = 0
KVA1 150037Z 09012KT 32/15 A3012 RMK A01 T03210147  RH  035%=      5-min Rain = 0
KVA1 150038Z 09012KT 32/15 A3012 RMK A01 T03200147  RH  035%=      5-min Rain = 0
KVA1 150039Z 09012KT 32/15 A3012 RMK A01 T03190148  RH  035%=      5-min Rain = 0
KVA1 150040Z 10011KT 32/15 A3012 RMK A01 T03180148  RH  036%=      5-min Rain = 0
KVA1 150041Z 09009KT 32/15 A3012 RMK A01 T03180149  RH  036%=      5-min Rain = 0
KVA1 150042Z 09008KT 32/15 A3012 RMK A01 T03180149  RH  036%=      5-min Rain = 0
KVA1 150043Z 10011KT 32/15 A3012 RMK A01 T03190150  RH  036%=      5-min Rain = 0
KVA1 150044Z 09012KT 32/15 A3012 RMK A01 T03180150  RH  036%=      5-min Rain = 0
KVA1 150045Z 09012KT 32/15 A3012 RMK A01 T03180151  RH  036%=      5-min Rain = 0
KVA1 150046Z 09010KT 32/15 A3012 RMK A01 T03170151  RH  037%=      5-min Rain = 0
KVA1 150047Z 10010KT 32/15 A3012 RMK A01 T03170153  RH  037%=      5-min Rain = 0
KVA1 150048Z 10011KT 32/15 A3012 RMK A01 T03170154  RH  037%=      5-min Rain = 0
KVA1 150049Z 09010KT 32/15 A3012 RMK A01 T03170154  RH  037%=      5-min Rain = 0
KVA1 150050Z 10009KT 32/15 A3012 RMK A01 T03160154  RH  037%=      5-min Rain = 0
KVA1 150051Z 09008KT 32/15 A3012 RMK A01 T03160153  RH  037%=      5-min Rain = 0
KVA1 150052Z 09008KT 32/15 A3012 RMK A01 T03160153  RH  037%=      5-min Rain = 0
KVA1 150053Z 09010KT 32/15 A3012 RMK A01 T03170153  RH  037%=      5-min Rain = 0
KVA1 150054Z 10010KT 32/15 A3013 RMK A01 T03160153  RH  037%=      5-min Rain = 0
KVA1 150055Z 08009KT 32/15 A3013 RMK A01 T03170153  RH  037%=      5-min Rain = 0
KVA1 150056Z 09010KT 32/15 A3013 RMK A01 T03160152  RH  037%=      5-min Rain = 0
KVA1 150057Z 08011KT 32/15 A3013 RMK A01 T03160153  RH  037%=      5-min Rain = 0
KVA1 150058Z 09011KT 32/15 A3013 RMK A01 T03160154  RH  038%=      5-min Rain = 0
KVA1 150059Z 09010KT 32/16 A3013 RMK A01 T03150155  RH  038%=      5-min Rain = 0
KVA1 150100Z 08008KT 32/16 A3013 RMK A01 T03150155  RH  038%=      5-min Rain = 0
KVA1 150101Z 07008G14KT 32/16 A3013 RMK A01 T03150156  RH  038%=      5-min Rain = 0
KVA1 150102Z 07011KT 32/16 A3013 RMK A01 T03150156  RH  038%=      5-min Rain = 0
KVA1 150103Z 09012KT 31/15 A3013 RMK A01 T03140153  RH  038%=      5-min Rain = 0
KVA1 150104Z 10009KT 31/15 A3013 RMK A01 T03140152  RH  038%=      5-min Rain = 0
KVA1 150105Z 09011KT 31/15 A3013 RMK A01 T03140151  RH  037%=      5-min Rain = 0
KVA1 150106Z 09013KT 31/15 A3013 RMK A01 T03140153  RH  038%=      5-min Rain = 0
KVA1 150107Z 09012KT 31/15 A3013 RMK A01 T03130152  RH  038%=      5-min Rain = 0
KVA1 150108Z 09012KT 31/15 A3013 RMK A01 T03120149  RH  037%=      5-min Rain = 0
KVA1 150109Z 09009KT 31/15 A3013 RMK A01 T03120152  RH  038%=      5-min Rain = 0
KVA1 150110Z 09010KT 31/15 A3013 RMK A01 T03120153  RH  038%=      5-min Rain = 0
KVA1 150111Z 10013KT 31/15 A3013 RMK A01 T03120154  RH  039%=      5-min Rain = 0
KVA1 150112Z 09009KT 31/15 A3013 RMK A01 T03120154  RH  039%=      5-min Rain = 0
KVA1 150113Z 08012KT 31/15 A3013 RMK A01 T03110154  RH  039%=      5-min Rain = 0
KVA1 150114Z 09009G14KT 31/15 A3013 RMK A01 T03110154  RH  039%=      5-min Rain = 0
KVA1 150115Z 08011KT 31/16 A3013 RMK A01 T03100155  RH  039%=      5-min Rain = 0
KVA1 150116Z 07010KT 31/16 A3013 RMK A01 T03100155  RH  039%=      5-min Rain = 0
KVA1 150117Z 08009KT 31/16 A3013 RMK A01 T03100157  RH  040%=      5-min Rain = 0
KVA1 150118Z 07011KT 31/16 A3013 RMK A01 T03090155  RH  039%=      5-min Rain = 0
KVA1 150119Z 08011KT 31/15 A3013 RMK A01 T03090154  RH  039%=      5-min Rain = 0
KVA1 150120Z 07009KT 31/15 A3013 RMK A01 T03080154  RH  039%=      5-min Rain = 0
KVA1 150121Z 08011KT 31/15 A3013 RMK A01 T03090153  RH  039%=      5-min Rain = 0
KVA1 150122Z 07012KT 31/15 A3013 RMK A01 T03080151  RH  039%=      5-min Rain = 0
KVA1 150123Z 08009KT 31/15 A3013 RMK A01 T03080153  RH  039%=      5-min Rain = 0
KVA1 150124Z 08010KT 31/15 A3013 RMK A01 T03080152  RH  039%=      5-min Rain = 0
KVA1 150125Z 08012KT 31/15 A3014 RMK A01 T03080152  RH  039%=      5-min Rain = 0
KVA1 150126Z 08011KT 31/15 A3014 RMK A01 T03070152  RH  039%=      5-min Rain = 0
KVA1 150127Z 08010KT 31/15 A3014 RMK A01 T03070153  RH  039%=      5-min Rain = 0
KVA1 150128Z 08012KT 31/15 A3014 RMK A01 T03060153  RH  040%=      5-min Rain = 0
KVA1 150129Z 08008KT 31/15 A3014 RMK A01 T03060153  RH  040%=      5-min Rain = 0
KVA1 150130Z 08011KT 31/16 A3014 RMK A01 T03050155  RH  040%=      5-min Rain = 0
KVA1 150131Z 08010KT 31/16 A3014 RMK A01 T03050155  RH  040%=      5-min Rain = 0
KVA1 150132Z 07011KT 31/15 A3014 RMK A01 T03050154  RH  040%=      5-min Rain = 0
KVA1 150133Z 09009KT 31/16 A3014 RMK A01 T03050155  RH  040%=      5-min Rain = 0
KVA1 150134Z 08011KT 30/16 A3014 RMK A01 T03040155  RH  040%=      5-min Rain = 0
KVA1 150135Z 08011KT 30/16 A3014 RMK A01 T03040155  RH  040%=      5-min Rain = 0
KVA1 150136Z 07009KT 30/16 A3014 RMK A01 T03040155  RH  041%=      5-min Rain = 0
KVA1 150137Z 07009KT 30/16 A3014 RMK A01 T03040156  RH  041%=      5-min Rain = 0
KVA1 150138Z 08009G14KT 30/16 A3014 RMK A01 T03040156  RH  041%=      5-min Rain = 0
KVA1 150139Z 08011KT 30/16 A3014 RMK A01 T03030155  RH  041%=      5-min Rain = 0
KVA1 150140Z 08013KT 30/15 A3014 RMK A01 T03030154  RH  041%=      5-min Rain = 0
KVA1 150141Z 08009KT 30/16 A3014 RMK A01 T03030155  RH  041%=      5-min Rain = 0
KVA1 150142Z 08010KT 30/16 A3014 RMK A01 T03030156  RH  041%=      5-min Rain = 0
KVA1 150143Z 08012KT 30/16 A3014 RMK A01 T03020156  RH  041%=      5-min Rain = 0
KVA1 150144Z 08012KT 30/16 A3014 RMK A01 T03020156  RH  041%=      5-min Rain = 0
KVA1 150145Z 09011KT 30/16 A3014 RMK A01 T03020156  RH  041%=      5-min Rain = 0
KVA1 150146Z 08011KT 30/16 A3015 RMK A01 T03020156  RH  041%=      5-min Rain = 0
KVA1 150147Z 09010KT 30/16 A3015 RMK A01 T03010156  RH  041%=      5-min Rain = 0
KVA1 150148Z 08009KT 30/16 A3015 RMK A01 T03010156  RH  041%=      5-min Rain = 0
KVA1 150149Z 09010KT 30/16 A3015 RMK A01 T03010156  RH  041%=      5-min Rain = 0
KVA1 150150Z 08011KT 30/16 A3015 RMK A01 T03010155  RH  041%=      5-min Rain = 0
KVA1 150151Z 08011KT 30/16 A3015 RMK A01 T03000155  RH  041%=      5-min Rain = 0
KVA1 150152Z 08011KT 30/16 A3015 RMK A01 T03000156  RH  042%=      5-min Rain = 0
KVA1 150153Z 08010KT 30/16 A3015 RMK A01 T03000157  RH  042%=      5-min Rain = 0
KVA1 150154Z 08012KT 30/16 A3015 RMK A01 T02990156  RH  042%=      5-min Rain = 0
KVA1 150155Z 07010KT 30/16 A3015 RMK A01 T02990156  RH  042%=      5-min Rain = 0
KVA1 150156Z 07011KT 30/16 A3015 RMK A01 T02990156  RH  042%=      5-min Rain = 0
KVA1 150157Z 06009KT 30/16 A3015 RMK A01 T02990157  RH  042%=      5-min Rain = 0
KVA1 150158Z 06011KT 30/16 A3015 RMK A01 T02990156  RH  042%=      5-min Rain = 0
KVA1 150159Z 07011KT 30/16 A3015 RMK A01 T02990156  RH  042%=      5-min Rain = 0
KVA1 150200Z 06011KT 30/16 A3015 RMK A01 T02990156  RH  042%=      5-min Rain = 0
KVA1 150201Z 07010KT 30/16 A3015 RMK A01 T02980155  RH  042%=      5-min Rain = 0
KVA1 150202Z 07013KT 30/16 A3016 RMK A01 T02980156  RH  042%=      5-min Rain = 0
KVA1 150203Z 06011KT 30/16 A3016 RMK A01 T02990157  RH  042%=      5-min Rain = 0
KVA1 150204Z 06012KT 30/16 A3016 RMK A01 T02980157  RH  042%=      5-min Rain = 0
KVA1 150205Z 06013KT 30/16 A3016 RMK A01 T02980157  RH  043%=      5-min Rain = 0
KVA1 150206Z 06013KT 30/16 A3016 RMK A01 T02980158  RH  043%=      5-min Rain = 0
KVA1 150207Z 06013KT 30/16 A3016 RMK A01 T02980159  RH  043%=      5-min Rain = 0
KVA1 150208Z 06012G17KT 30/16 A3017 RMK A01 T02980159  RH  043%=      5-min Rain = 0
KVA1 150209Z 07014KT 30/16 A3017 RMK A01 T02980160  RH  043%=      5-min Rain = 0
KVA1 150210Z 07011KT 30/16 A3017 RMK A01 T02980160  RH  043%=      5-min Rain = 0
KVA1 150211Z 07010KT 30/16 A3017 RMK A01 T02980161  RH  043%=      5-min Rain = 0
KVA1 150212Z 06009KT 30/16 A3017 RMK A01 T02970161  RH  044%=      5-min Rain = 0
KVA1 150213Z 06008KT 30/16 A3017 RMK A01 T02970162  RH  044%=      5-min Rain = 0
KVA1 150214Z 07009KT 30/16 A3017 RMK A01 T02960162  RH  044%=      5-min Rain = 0
KVA1 150215Z 07008KT 30/16 A3017 RMK A01 T02960163  RH  045%=      5-min Rain = 0
KVA1 150216Z 06008KT 30/16 A3017 RMK A01 T02960163  RH  045%=      5-min Rain = 0
KVA1 150217Z 07010KT 30/16 A3017 RMK A01 T02950163  RH  045%=      5-min Rain = 0
KVA1 150218Z 07011KT 30/16 A3018 RMK A01 T02950163  RH  045%=      5-min Rain = 0
KVA1 150219Z 07011KT 30/16 A3017 RMK A01 T02950163  RH  045%=      5-min Rain = 0
KVA1 150220Z 06011G16KT 30/16 A3018 RMK A01 T02950163  RH  045%=      5-min Rain = 0
KVA1 150221Z 07013KT 30/16 A3018 RMK A01 T02950163  RH  045%=      5-min Rain = 0
KVA1 150222Z 07011KT 30/16 A3018 RMK A01 T02950164  RH  045%=      5-min Rain = 0
KVA1 150223Z 07009KT 30/16 A3018 RMK A01 T02950164  RH  045%=      5-min Rain = 0
KVA1 150224Z 07011KT 30/17 A3018 RMK A01 T02950165  RH  045%=      5-min Rain = 0
KVA1 150225Z 07011KT 30/17 A3018 RMK A01 T02950165  RH  045%=      5-min Rain = 0
KVA1 150226Z 07011KT 30/17 A3018 RMK A01 T02950165  RH  045%=      5-min Rain = 0
KVA1 150227Z 07009KT 30/17 A3018 RMK A01 T02950165  RH  046%=      5-min Rain = 0
KVA1 150228Z 07008KT 30/17 A3018 RMK A01 T02950166  RH  046%=      5-min Rain = 0
KVA1 150229Z 07008KT 29/17 A3018 RMK A01 T02940166  RH  046%=      5-min Rain = 0
KVA1 150230Z 07009KT 29/17 A3018 RMK A01 T02940166  RH  046%=      5-min Rain = 0
KVA1 150231Z 08008KT 29/17 A3018 RMK A01 T02940167  RH  046%=      5-min Rain = 0
KVA1 150232Z 08009KT 29/17 A3018 RMK A01 T02930166  RH  046%=      5-min Rain = 0
KVA1 150233Z 07010KT 29/17 A3018 RMK A01 T02930165  RH  046%=      5-min Rain = 0
KVA1 150234Z 07007KT 29/17 A3018 RMK A01 T02930166  RH  046%=      5-min Rain = 0
KVA1 150235Z 08007KT 29/17 A3018 RMK A01 T02930167  RH  047%=      5-min Rain = 0
KVA1 150236Z 07008KT 29/17 A3018 RMK A01 T02920167  RH  047%=      5-min Rain = 0
KVA1 150237Z 08010KT 29/17 A3018 RMK A01 T02920167  RH  047%=      5-min Rain = 0
KVA1 150238Z 07008KT 29/17 A3018 RMK A01 T02920167  RH  047%=      5-min Rain = 0
KVA1 150239Z 08010KT 29/17 A3018 RMK A01 T02920168  RH  047%=      5-min Rain = 0
KVA1 150240Z 08009KT 29/17 A3018 RMK A01 T02920167  RH  047%=      5-min Rain = 0
KVA1 150241Z 08009KT 29/17 A3018 RMK A01 T02920168  RH  047%=      5-min Rain = 0
KVA1 150242Z 09008KT 29/17 A3018 RMK A01 T02920168  RH  047%=      5-min Rain = 0
KVA1 150243Z 09010G16KT 29/17 A3018 RMK A01 T02910168  RH  047%=      5-min Rain = 0
KVA1 150244Z 09014KT 29/17 A3018 RMK A01 T02910168  RH  048%=      5-min Rain = 0
KVA1 150245Z 09015G20KT 29/17 A3018 RMK A01 T02880168  RH  048%=      5-min Rain = 0
KVA1 150246Z 09013KT 29/17 A3019 RMK A01 T02860168  RH  049%=      5-min Rain = 0
KVA1 150247Z 09014KT 28/17 A3018 RMK A01 T02840168  RH  049%=      5-min Rain = 0
KVA1 150248Z 09012KT 28/17 A3019 RMK A01 T02830168  RH  050%=      5-min Rain = 0
KVA1 150249Z 08011KT 28/17 A3019 RMK A01 T02820168  RH  050%=      5-min Rain = 0
KVA1 150250Z 09009KT 28/17 A3019 RMK A01 T02810168  RH  050%=      5-min Rain = 0
KVA1 150251Z 09011KT 28/17 A3019 RMK A01 T02800168  RH  051%=      5-min Rain = 0
KVA1 150252Z 09013KT 28/17 A3019 RMK A01 T02790167  RH  051%=      5-min Rain = 0
KVA1 150253Z 09011KT 28/17 A3019 RMK A01 T02790167  RH  051%=      5-min Rain = 0
KVA1 150254Z 08010KT 28/17 A3019 RMK A01 T02780167  RH  051%=      5-min Rain = 0
KVA1 150255Z 08010KT 28/17 A3019 RMK A01 T02780167  RH  051%=      5-min Rain = 0
KVA1 150256Z 08009KT 28/17 A3019 RMK A01 T02770167  RH  051%=      5-min Rain = 0
KVA1 150257Z 08011KT 28/17 A3019 RMK A01 T02760167  RH  051%=      5-min Rain = 0
KVA1 150258Z 08012KT 28/17 A3019 RMK A01 T02760167  RH  051%=      5-min Rain = 0
KVA1 150259Z 08010KT 28/17 A3019 RMK A01 T02760167  RH  051%=      5-min Rain = 0
KVA1 150300Z 08010KT 28/17 A3019 RMK A01 T02750167  RH  051%=      5-min Rain = 0
KVA1 150301Z 08011KT 28/17 A3019 RMK A01 T02750167  RH  052%=      5-min Rain = 0
KVA1 150302Z 08012KT 28/17 A302 RMK A01 T02750167  RH  052%=      5-min Rain = 0
KVA1 150303Z 08011KT 27/17 A302 RMK A01 T02740167  RH  052%=      5-min Rain = 0
KVA1 150304Z 08010G15KT 27/17 A302 RMK A01 T02740167  RH  052%=      5-min Rain = 0
KVA1 150305Z 08010KT 27/17 A302 RMK A01 T02740167  RH  052%=      5-min Rain = 0
KVA1 150306Z 08011KT 27/17 A302 RMK A01 T02730167  RH  052%=      5-min Rain = 0
KVA1 150307Z 08009KT 27/17 A302 RMK A01 T02730167  RH  052%=      5-min Rain = 0
KVA1 150308Z 08010KT 27/17 A302 RMK A01 T02730168  RH  053%=      5-min Rain = 0
KVA1 150309Z 08007KT 27/17 A302 RMK A01 T02730168  RH  053%=      5-min Rain = 0
KVA1 150310Z 08008KT 27/17 A302 RMK A01 T02720168  RH  053%=      5-min Rain = 0
KVA1 150311Z 07009KT 27/17 A302 RMK A01 T02720168  RH  053%=      5-min Rain = 0
KVA1 150312Z 07009KT 27/17 A302 RMK A01 T02720168  RH  053%=      5-min Rain = 0
KVA1 150313Z 07008KT 27/17 A302 RMK A01 T02720169  RH  053%=      5-min Rain = 0
KVA1 150314Z 07008KT 27/17 A302 RMK A01 T02720169  RH  053%=      5-min Rain = 0
KVA1 150315Z 06007KT 27/17 A302 RMK A01 T02710169  RH  053%=      5-min Rain = 0
KVA1 150316Z 07008KT 27/17 A302 RMK A01 T02710169  RH  054%=      5-min Rain = 0
KVA1 150317Z 07005KT 27/17 A302 RMK A01 T02710169  RH  054%=      5-min Rain = 0
KVA1 150318Z 07005KT 27/17 A302 RMK A01 T02710170  RH  054%=      5-min Rain = 0
KVA1 150319Z 07004KT 27/17 A302 RMK A01 T02700171  RH  054%=      5-min Rain = 0
KVA1 150320Z 08005KT 27/17 A302 RMK A01 T02700171  RH  054%=      5-min Rain = 0
KVA1 150321Z 08006KT 27/17 A302 RMK A01 T02700170  RH  054%=      5-min Rain = 0
KVA1 150322Z 07003KT 27/17 A302 RMK A01 T02700170  RH  054%=      5-min Rain = 0
KVA1 150323Z 07003KT 27/17 A302 RMK A01 T02690171  RH  055%=      5-min Rain = 0
KVA1 150324Z 08003KT 27/17 A302 RMK A01 T02690171  RH  055%=      5-min Rain = 0
KVA1 150325Z 07002KT 27/17 A302 RMK A01 T02690171  RH  055%=      5-min Rain = 0
KVA1 150326Z 06003KT 27/17 A302 RMK A01 T02690171  RH  055%=      5-min Rain = 0
KVA1 150327Z 06003KT 27/17 A302 RMK A01 T02690172  RH  055%=      5-min Rain = 0
KVA1 150328Z 06003KT 27/17 A302 RMK A01 T02680171  RH  055%=      5-min Rain = 0
KVA1 150329Z 04003KT 27/17 A302 RMK A01 T02680171  RH  055%=      5-min Rain = 0
KVA1 150330Z 03004KT 27/17 A302 RMK A01 T02690171  RH  055%=      5-min Rain = 0
KVA1 150331Z 03003KT 27/17 A302 RMK A01 T02690173  RH  056%=      5-min Rain = 0
KVA1 150332Z 02004KT 27/17 A302 RMK A01 T02690173  RH  056%=      5-min Rain = 0
KVA1 150333Z 01004KT 27/17 A302 RMK A01 T02690173  RH  056%=      5-min Rain = 0
KVA1 150334Z 01004KT 27/17 A302 RMK A01 T02680173  RH  056%=      5-min Rain = 0
KVA1 150335Z 01004KT 27/17 A302 RMK A01 T02680173  RH  056%=      5-min Rain = 0
KVA1 150336Z 00004KT 27/17 A302 RMK A01 T02680174  RH  056%=      5-min Rain = 0
KVA1 150337Z 34003KT 27/17 A302 RMK A01 T02670173  RH  056%=      5-min Rain = 0
KVA1 150338Z 34003KT 27/17 A302 RMK A01 T02670174  RH  057%=      5-min Rain = 0
KVA1 150339Z 35003KT 27/17 A302 RMK A01 T02670173  RH  057%=      5-min Rain = 0
KVA1 150340Z 34003KT 27/17 A302 RMK A01 T02670174  RH  057%=      5-min Rain = 0
KVA1 150341Z 34003KT 27/17 A302 RMK A01 T02660174  RH  057%=      5-min Rain = 0
KVA1 150342Z 33004KT 27/17 A302 RMK A01 T02660173  RH  057%=      5-min Rain = 0
KVA1 150343Z 32004KT 27/17 A302 RMK A01 T02650174  RH  057%=      5-min Rain = 0
KVA1 150344Z 32004KT 27/17 A302 RMK A01 T02650174  RH  058%=      5-min Rain = 0
KVA1 150345Z 32004KT 26/17 A302 RMK A01 T02640174  RH  058%=      5-min Rain = 0
KVA1 150346Z 31004KT 26/17 A302 RMK A01 T02630174  RH  058%=      5-min Rain = 0
KVA1 150347Z 31005KT 26/17 A302 RMK A01 T02640174  RH  058%=      5-min Rain = 0
KVA1 150348Z 31004KT 26/18 A302 RMK A01 T02630175  RH  058%=      5-min Rain = 0
KVA1 150349Z 30005KT 26/17 A302 RMK A01 T02630174  RH  058%=      5-min Rain = 0
KVA1 150350Z 30005KT 26/18 A302 RMK A01 T02630175  RH  058%=      5-min Rain = 0
KVA1 150351Z 30005KT 26/18 A302 RMK A01 T02630175  RH  059%=      5-min Rain = 0
KVA1 150352Z 30005KT 26/18 A302 RMK A01 T02630175  RH  059%=      5-min Rain = 0
KVA1 150353Z 29004KT 26/18 A302 RMK A01 T02620176  RH  059%=      5-min Rain = 0
KVA1 150354Z 30005KT 26/18 A302 RMK A01 T02620175  RH  059%=      5-min Rain = 0
KVA1 150355Z 30005KT 26/18 A302 RMK A01 T02620175  RH  059%=      5-min Rain = 0
KVA1 150356Z 30006KT 26/17 A302 RMK A01 T02610174  RH  059%=      5-min Rain = 0
KVA1 150357Z 29005KT 26/17 A302 RMK A01 T02610174  RH  059%=      5-min Rain = 0
KVA1 150358Z 29004KT 26/17 A3019 RMK A01 T02610173  RH  058%=      5-min Rain = 0
KVA1 150359Z 29004KT 26/17 A3019 RMK A01 T02610174  RH  059%=      5-min Rain = 0
KVA1 150400Z 29004KT 26/17 A3019 RMK A01 T02610174  RH  059%=      5-min Rain = 0
KVA1 150401Z 30004KT 26/17 A3019 RMK A01 T02610174  RH  059%=      5-min Rain = 0
KVA1 150402Z 29003KT 26/17 A3019 RMK A01 T02600173  RH  059%=      5-min Rain = 0
KVA1 150403Z 30003KT 26/17 A3019 RMK A01 T02600174  RH  059%=      5-min Rain = 0
KVA1 150404Z 30003KT 26/17 A3019 RMK A01 T02600174  RH  059%=      5-min Rain = 0
KVA1 150405Z 31004KT 26/18 A3019 RMK A01 T02600175  RH  059%=      5-min Rain = 0
KVA1 150406Z 31005KT 26/17 A3019 RMK A01 T02600174  RH  059%=      5-min Rain = 0
KVA1 150407Z 31005KT 26/17 A3019 RMK A01 T02600173  RH  059%=      5-min Rain = 0
KVA1 150408Z 31005KT 26/17 A3019 RMK A01 T02600173  RH  059%=      5-min Rain = 0
KVA1 150409Z 31005KT 26/18 A3018 RMK A01 T02610175  RH  059%=      5-min Rain = 0
KVA1 150410Z 31004KT 26/17 A3018 RMK A01 T02600174  RH  059%=      5-min Rain = 0
KVA1 150411Z 31004KT 26/17 A3018 RMK A01 T02600173  RH  059%=      5-min Rain = 0
KVA1 150412Z 31004KT 26/17 A3018 RMK A01 T02610174  RH  059%=      5-min Rain = 0
KVA1 150413Z 30004KT 26/18 A3018 RMK A01 T02610175  RH  059%=      5-min Rain = 0
KVA1 150414Z 30004KT 26/18 A3018 RMK A01 T02600175  RH  059%=      5-min Rain = 0
KVA1 150415Z 31004KT 26/18 A3018 RMK A01 T02600175  RH  059%=      5-min Rain = 0
KVA1 150416Z 30004KT 26/17 A3018 RMK A01 T02590174  RH  059%=      5-min Rain = 0
KVA1 150417Z 30004KT 26/18 A3017 RMK A01 T02590175  RH  060%=      5-min Rain = 0
KVA1 150418Z 28004KT 26/18 A3017 RMK A01 T02590175  RH  060%=      5-min Rain = 0
KVA1 150419Z 26005KT 26/18 A3017 RMK A01 T02590175  RH  060%=      5-min Rain = 0
KVA1 150420Z 27005KT 26/18 A3017 RMK A01 T02590176  RH  060%=      5-min Rain = 0
KVA1 150421Z 27004KT 26/18 A3017 RMK A01 T02580177  RH  061%=      5-min Rain = 0
KVA1 150422Z 26005KT 26/18 A3017 RMK A01 T02580177  RH  061%=      5-min Rain = 0
KVA1 150423Z 26005KT 26/18 A3017 RMK A01 T02580178  RH  061%=      5-min Rain = 0
KVA1 150424Z 25005KT 26/18 A3017 RMK A01 T02570178  RH  062%=      5-min Rain = 0
KVA1 150425Z 26005KT 26/18 A3018 RMK A01 T02570178  RH  062%=      5-min Rain = 0
KVA1 150426Z 27005KT 26/18 A3018 RMK A01 T02560178  RH  062%=      5-min Rain = 0
KVA1 150427Z 28004KT 26/18 A3018 RMK A01 T02560178  RH  062%=      5-min Rain = 0
KVA1 150428Z 28003KT 26/18 A3018 RMK A01 T02560179  RH  062%=      5-min Rain = 0
KVA1 150429Z 28003KT 26/18 A3018 RMK A01 T02560180  RH  063%=      5-min Rain = 0
KVA1 150430Z 28003KT 26/18 A3018 RMK A01 T02550180  RH  063%=      5-min Rain = 0
KVA1 150431Z 28003KT 26/18 A3018 RMK A01 T02550179  RH  063%=      5-min Rain = 0
KVA1 150432Z 29002KT 25/18 A3018 RMK A01 T02540179  RH  063%=      5-min Rain = 0
KVA1 150433Z 31003KT 25/18 A3018 RMK A01 T02540179  RH  063%=      5-min Rain = 0
KVA1 150434Z 33003KT 25/18 A3018 RMK A01 T02540180  RH  063%=      5-min Rain = 0
KVA1 150435Z 33003KT 25/18 A3019 RMK A01 T02540181  RH  064%=      5-min Rain = 0
KVA1 150436Z 34003KT 25/18 A3019 RMK A01 T02540180  RH  064%=      5-min Rain = 0
KVA1 150437Z 00003KT 25/18 A3019 RMK A01 T02540180  RH  064%=      5-min Rain = 0
KVA1 150438Z 04003KT 25/18 A3019 RMK A01 T02540181  RH  064%=      5-min Rain = 0
KVA1 150439Z 06004KT 25/18 A3019 RMK A01 T02540183  RH  065%=      5-min Rain = 0
KVA1 150440Z 06004KT 25/18 A3019 RMK A01 T02530182  RH  065%=      5-min Rain = 0
KVA1 150441Z 05004KT 25/18 A3019 RMK A01 T02530180  RH  064%=      5-min Rain = 0
KVA1 150442Z 04004KT 25/18 A3019 RMK A01 T02530180  RH  064%=      5-min Rain = 0
KVA1 150443Z 04003KT 25/18 A3019 RMK A01 T02530179  RH  063%=      5-min Rain = 0
KVA1 150444Z 04003KT 25/18 A3019 RMK A01 T02530177  RH  063%=      5-min Rain = 0
KVA1 150445Z 04002KT 25/18 A3019 RMK A01 T02540177  RH  062%=      5-min Rain = 0
KVA1 150446Z 03002KT 26/18 A3019 RMK A01 T02550178  RH  062%=      5-min Rain = 0
KVA1 150447Z 04002KT 26/18 A3019 RMK A01 T02560180  RH  063%=      5-min Rain = 0
KVA1 150448Z 04001KT 26/18 A3019 RMK A01 T02560180  RH  063%=      5-min Rain = 0
KVA1 150449Z 04000KT 26/18 A3019 RMK A01 T02560181  RH  063%=      5-min Rain = 0
KVA1 150450Z 23001KT 26/18 A3019 RMK A01 T02550183  RH  064%=      5-min Rain = 0
KVA1 150451Z 22001KT 25/18 A3019 RMK A01 T02540183  RH  065%=      5-min Rain = 0
KVA1 150452Z 20001KT 25/18 A3019 RMK A01 T02540178  RH  063%=      5-min Rain = 0
KVA1 150453Z 21000KT 25/18 A3019 RMK A01 T02540178  RH  063%=      5-min Rain = 0
KVA1 150454Z 00000KT 25/18 A3019 RMK A01 T02540181  RH  064%=      5-min Rain = 0
KVA1 150455Z 32000KT 25/18 A3019 RMK A01 T02540181  RH  064%=      5-min Rain = 0
KVA1 150456Z 32001KT 25/18 A302 RMK A01 T02540181  RH  064%=      5-min Rain = 0
KVA1 150457Z 31002KT 25/18 A302 RMK A01 T02540182  RH  064%=      5-min Rain = 0
KVA1 150458Z 31001KT 25/18 A302 RMK A01 T02540181  RH  064%=      5-min Rain = 0
KVA1 150459Z 29002KT 25/18 A302 RMK A01 T02530180  RH  064%=      5-min Rain = 0

Page generated in 0.1214 seconds.